Eltham High School

Historical Weather Data

                  Temp     Hi    Low   Out         Wind        Wind    Hi    Hi   Wind   Heat          THSW                Rain  Solar   Solar Hi Solar         UV    Hi     Heat    Cool    In     In          Wind  Wind    ISS   Arc.
  Date    Time     Out   Temp   Temp   Hum    Dew Speed   Dir   Run Speed   Dir  Chill  Index    THW  Index   Bar    Rain  Rate   Rad.  Energy    Rad.    UV   Dose   UV     D-D     D-D    Temp   Hum     ET   Samp   Tx   Recept  Int.
------------------------------------------------------------------------------------------------------------------------------------------------------------------------------------------------------------------------------------------
24/11/20 12:30a   15.0   15.1   15.0    82   12.0   0.0   ---  0.00   0.0   ---   15.0   14.9   14.9   13.4  1027.7  0.00   0.0     0     0.00      0     0.0  0.00   0.0   0.069   0.000   27.7    42    0.00   647    1     94.6   30 
24/11/20  1:00a   15.0   15.1   15.0    82   12.0   0.0   ---  0.00   0.0   ---   15.0   14.9   14.9   13.4  1027.6  0.00   0.0     0     0.00      0     0.0  0.00   0.0   0.069   0.000   27.7    42    0.03   701    1    100.0   30 
24/11/20  1:30a   15.0   15.1   14.9    80   11.6   0.0   ---  0.00   0.0   ---   15.0   14.9   14.9   13.3  1027.6  0.00   0.0     0     0.00      0     0.0  0.00   0.0   0.069   0.000   27.7    42    0.00   676    1     98.8   30 
24/11/20  2:00a   14.8   15.0   14.8    78   11.0   0.0   ---  0.00   0.0   ---   14.8   14.7   14.7   13.1  1027.6  0.00   0.0     0     0.00      0     0.0  0.00   0.0   0.073   0.000   27.7    42    0.03   700    1    100.0   30 
24/11/20  2:30a   14.3   14.8   14.3    77   10.4   0.0   ---  0.00   0.0   ---   14.3   14.1   14.1   12.6  1027.6  0.00   0.0     0     0.00      0     0.0  0.00   0.0   0.083   0.000   27.6    42    0.00   701    1    100.0   30 
24/11/20  3:00a   14.1   14.3   14.1    78   10.3   0.0   ---  0.00   0.0   ---   14.1   13.8   13.8   12.3  1026.9  0.00   0.0     0     0.00      0     0.0  0.00   0.0   0.089   0.000   27.6    41    0.03   699    1    100.0   30 
24/11/20  3:30a   13.6   14.1   13.6    81   10.4   0.0   ---  0.00   0.0   ---   13.6   13.4   13.4   11.8  1026.3  0.00   0.0     0     0.00      0     0.0  0.00   0.0   0.100   0.000   27.4    41    0.00   702    1    100.0   30 
24/11/20  4:00a   12.8   13.6   12.8    84   10.1   0.0   ---  0.00   0.0   ---   12.8   12.7   12.7   11.2  1026.0  0.00   0.0     0     0.00      0     0.0  0.00   0.0   0.116   0.000   27.4    41    0.03   703    1    100.0   30 
24/11/20  4:30a   12.3   12.8   12.3    88   10.4   0.0   ---  0.00   0.0   ---   12.3   12.3   12.3   10.8  1025.8  0.00   0.0     0     0.00      0     0.0  0.00   0.0   0.125   0.000   27.3    41    0.00   700    1    100.0   30 
24/11/20  5:00a   12.2   12.3   12.2    90   10.6   0.0   ---  0.00   0.0   ---   12.2   12.3   12.3   10.7  1026.1  0.00   0.0     0     0.00      0     0.0  0.00   0.0   0.127   0.000   27.2    41    0.00   702    1    100.0   30 
24/11/20  5:30a   12.4   12.4   12.2    91   11.0   0.0   ---  0.00   0.0   ---   12.4   12.4   12.4   10.9  1026.4  0.00   0.0     0     0.00      0     0.0  0.00   0.0   0.124   0.000   27.2    41    0.00   676    1     98.8   30 
24/11/20  6:00a   12.7   12.7   12.4    90   11.1   0.0   ---  0.00   0.0   ---   12.7   12.7   12.7   11.2  1026.9  0.00   0.0     0     0.00      5     0.0  0.00   0.0   0.118   0.000   27.1    41    0.00   703    1    100.0   30 
24/11/20  6:30a   13.2   13.2   12.7    86   10.9   0.0   ---  0.00   0.0   ---   13.2   13.1   13.1   12.0  1027.1  0.00   0.0    35     1.51     93     0.0  0.00   0.0   0.108   0.000   27.1    41    0.00   702    1    100.0   30 
24/11/20  7:00a   13.7   13.7   13.2    83   10.9   0.0   ---  0.00   0.0   ---   13.7   13.6   13.6   12.9  1027.3  0.00   0.0    65     2.80    107     0.0  0.00   0.0   0.096   0.000   27.1    41    0.03   700    1    100.0   30 
24/11/20  7:30a   14.0   14.0   13.7    81   10.8   0.0   ---  0.00   0.0   ---   14.0   13.9   13.9   13.0  1027.3  0.00   0.0    52     2.24     63     0.0  0.00   0.0   0.090   0.000   27.1    41    0.00   701    1    100.0   30 
24/11/20  8:00a   14.3   14.3   14.0    79   10.7   0.0   ---  0.00   0.0   ---   14.3   14.1   14.1   15.5  1027.4  0.00   0.0   102     4.39    153     0.0  0.00   0.0   0.084   0.000   27.2    41    0.05   700    1    100.0   30 
24/11/20  8:30a   14.7   14.7   14.3    76   10.5   0.0   ---  0.00   0.0   ---   14.7   14.4   14.4   16.8  1027.3  0.00   0.0   163     7.01    227     0.4  0.09   0.9   0.076   0.000   26.8    40    0.00   701    1    100.0   30 
24/11/20  9:00a   15.7   15.7   14.7    72   10.6   0.0   ---  0.00   0.0   ---   15.7   15.4   15.4   19.0  1027.3  0.00   0.0   254    10.92    287     1.1  0.24   1.3   0.056   0.000   26.6    41    0.10   700    1    100.0   30 
24/11/20  9:30a   16.0   16.1   15.7    70   10.5   0.0   ---  0.00   0.0   ---   16.0   15.7   15.7   19.2  1027.8  0.00   0.0   274    11.78    547     1.2  0.26   2.1   0.049   0.000   26.7    41    0.00   702    1    100.0   30 
24/11/20 10:00a   15.8   16.0   15.8    70   10.3   0.0   ---  0.00   0.0   ---   15.8   15.4   15.4   17.7  1028.2  0.00   0.0   214     9.20    287     1.1  0.24   1.5   0.053   0.000   27.0    41    0.00   675    1     98.7   30 
24/11/20 10:30a   17.0   17.0   15.8    66   10.6   0.0   ---  0.00   0.0   ---   17.0   16.7   16.7   21.7  1028.0  0.00   0.0   471    20.26    682     2.9  0.62   3.7   0.028   0.000   27.2    40    0.13   699    1    100.0   30 
24/11/20 11:00a   17.5   17.5   17.0    65   10.8   0.0   ---  0.00   0.0   ---   17.5   17.2   17.2   21.9  1028.3  0.00   0.0   459    19.74    663     3.1  0.66   4.7   0.017   0.000   27.7    40    0.25   701    1    100.0   30 
24/11/20 11:30a   17.8   17.8   17.5    65   11.2   0.0   ---  0.00   0.0   ---   17.8   17.6   17.6   22.3  1028.2  0.00   0.0   489    21.03    654     3.8  0.81   4.9   0.010   0.000   27.8    39    0.00   701    1    100.0   30 
24/11/20 12:00p   18.0   18.3   17.8    65   11.3   0.0   ---  0.00   0.0   ---   18.0   17.8   17.8   22.1  1028.1  0.00   0.0   437    18.79    575     3.8  0.81   6.5   0.007   0.000   28.2    39    0.28   702    1    100.0   30 
24/11/20 12:30p   18.4   18.4   18.0    64   11.5   0.0   ---  0.00   0.0   ---   18.4   18.2   18.2   23.8  1027.7  0.00   0.0   606    26.06    911     4.9  1.05   6.6   0.000   0.002   28.3    39    0.00   702    1    100.0   30 
24/11/20  1:00p   18.8   19.0   18.4    64   11.8   0.0   ---  0.00   0.0   ---   18.8   18.6   18.6   24.5  1027.6  0.00   0.0   666    28.64    879     5.2  1.11   6.4   0.000   0.009   28.5    38    0.36   702    1    100.0   30 
24/11/20  1:30p   19.3   19.4   18.6    63   12.1   0.0   ---  0.00   0.0   ---   19.3   19.1   19.1   25.1  1027.3  0.00   0.0   676    29.07   1227     5.8  1.24   8.7   0.000   0.020   28.6    39    0.00   700    1    100.0   30 
24/11/20  2:00p   19.3   19.7   19.2    62   11.9   0.0   ---  0.00   0.0   ---   19.3   19.2   19.2   24.4  1027.1  0.00   0.0   563    24.21    745     4.5  0.96   6.6   0.000   0.021   28.2    37    0.38   700    1    100.0   30 
24/11/20  2:30p   19.6   19.8   19.2    59   11.3   0.0   ---  0.00   0.0   ---   19.6   19.3   19.3   24.3  1027.0  0.00   0.0   535    23.01    858     4.0  0.86   5.6   0.000   0.025   27.8    38    0.00   701    1    100.0   30 
24/11/20  3:00p   20.9   20.9   19.5    55   11.5   0.0   ---  0.00   0.0   ---   20.9   20.2   20.2   25.9  1026.4  0.00   0.0   861    37.03   1078     5.6  1.20   6.7   0.000   0.053   27.7    38    0.41   700    1    100.0   30 
24/11/20  3:30p   20.8   21.2   20.8    56   11.7   0.0   ---  0.00   0.0   ---   20.8   20.2   20.2   26.2  1026.0  0.00   0.0   693    29.80   1090     4.7  1.01   6.3   0.000   0.052   27.7    37    0.00   702    1    100.0   30 
24/11/20  4:00p   20.7   21.2   20.5    59   12.4   0.0   ---  0.00   0.0   ---   20.7   20.3   20.3   25.2  1025.8  0.00   0.0   489    21.03   1209     3.0  0.64   5.1   0.000   0.049   27.4    37    0.38   700    1    100.0   30 
24/11/20  4:30p   20.1   20.7   19.9    62   12.5   0.0   ---  0.00   0.0   ---   20.1   20.0   20.0   22.7  1025.6  0.00   0.0   257    11.05    392     1.4  0.30   1.8   0.000   0.036   27.2    36    0.00   701    1    100.0   30 
24/11/20  5:00p   21.1   21.1   20.0    60   13.0   0.0   ---  0.00   0.0   ---   21.1   20.6   20.6   26.0  1025.6  0.00   0.0   479    20.60    837     2.0  0.43   2.5   0.000   0.057   26.9    36    0.23   701    1    100.0   30 
24/11/20  5:30p   20.3   21.3   20.3    61   12.6   0.0   ---  0.00   0.0   ---   20.3   20.1   20.1   23.5  1025.8  0.00   0.0   267    11.48    707     1.2  0.26   1.8   0.000   0.042   26.5    35    0.00   699    1    100.0   30 
24/11/20  6:00p   20.3   20.6   19.8    62   12.8   0.0   ---  0.00   0.0   ---   20.3   20.2   20.2   24.1  1026.0  0.00   0.0   272    11.70    622     0.9  0.19   1.3   0.000   0.042   25.9    33    0.18   702    1    100.0   30 
24/11/20  6:30p   19.6   20.3   19.6    64   12.6   0.0   ---  0.00   0.0   ---   19.6   19.5   19.5   21.3  1026.0  0.00   0.0   135     5.81    197     0.2  0.04   0.6   0.000   0.025   26.4    37    0.00   701    1    100.0   30 
24/11/20  7:00p   19.3   19.6   19.3    62   11.8   0.0   ---  0.00   0.0   ---   19.3   19.1   19.1   20.1  1026.4  0.00   0.0    85     3.66    114     0.0  0.00   0.0   0.000   0.020   27.3    38    0.08   700    1    100.0   30 
24/11/20  7:30p   19.0   19.3   19.0    63   11.8   0.0   ---  0.00   0.0   ---   19.0   18.8   18.8   18.9  1026.7  0.00   0.0    45     1.94     51     0.0  0.00   0.0   0.000   0.014   27.9    38    0.00   696    1    100.0   30 
24/11/20  8:00p   18.6   19.0   18.6    65   11.9   0.0   ---  0.00   0.0   ---   18.6   18.5   18.5   17.3  1026.8  0.00   0.0    15     0.65     28     0.0  0.00   0.0   0.000   0.006   28.4    38    0.03   701    1    100.0   30 
24/11/20  8:30p   18.2   18.6   18.2    68   12.2   0.0   ---  0.00   0.0   ---   18.2   18.1   18.1   16.7  1026.9  0.00   0.0     1     0.04      5     0.0  0.00   0.0   0.002   0.000   28.6    38    0.00   700    1    100.0   30 
24/11/20  9:00p   17.8   18.2   17.8    69   12.1   0.0   ---  0.00   0.0   ---   17.8   17.7   17.7   16.3  1027.0  0.00   0.0     0     0.00      0     0.0  0.00   0.0   0.010   0.000   28.8    38    0.00   702    1    100.0   30 
24/11/20  9:30p   17.7   17.8   17.7    71   12.4   0.0   ---  0.00   0.0   ---   17.7   17.6   17.6   16.2  1027.2  0.00   0.0     0     0.00      0     0.0  0.00   0.0   0.013   0.000   28.9    38    0.00   702    1    100.0   30 
24/11/20 10:00p   17.3   17.7   17.3    72   12.2   0.0   ---  0.00   0.0   ---   17.3   17.2   17.2   15.8  1027.2  0.00   0.0     0     0.00      0     0.0  0.00   0.0   0.021   0.000   29.1    38    0.03   700    1    100.0   30 
24/11/20 10:30p   17.1   17.3   17.1    74   12.4   0.0   ---  0.00   0.0   ---   17.1   17.0   17.0   15.6  1027.2  0.00   0.0     0     0.00      0     0.0  0.00   0.0   0.025   0.000   29.2    38    0.00   700    1    100.0   30 
24/11/20 11:00p   16.2   17.2   16.2    78   12.3   0.0   ---  0.00   0.0   ---   16.2   16.1   16.1   14.7  1027.1  0.00   0.0     0     0.00      0     0.0  0.00   0.0   0.045   0.000   29.1    38    0.03   671    1     98.1   30 
24/11/20 11:30p   15.1   16.2   15.1    84   12.4   0.0   ---  0.00   0.0   ---   15.1   15.1   15.1   13.7  1027.0  0.00   0.0     0     0.00      0     0.0  0.00   0.0   0.068   0.000   29.1    38    0.00   703    1    100.0   30 
25/11/20 12:00a   14.3   15.1   14.3    87   12.1   0.0   ---  0.00   0.0   ---   14.3   14.3   14.3   12.8  1026.9  0.00   0.0     0     0.00      0     0.0  0.00   0.0   0.084   0.000   28.8    38    0.03   701    1    100.0   30 
25/11/20 12:30a   13.7   14.3   13.7    88   11.7   0.0   ---  0.00   0.0   ---   13.7   13.7   13.7   12.2  1026.5  0.00   0.0     0     0.00      0     0.0  0.00   0.0   0.097   0.000   28.7    38    0.00   669    1     97.8   30 
25/11/20  1:00a   13.2   13.7   13.2    90   11.6   0.0   ---  0.00   0.0   ---   13.2   13.2   13.2   11.8  1026.1  0.00   0.0     0     0.00      0     0.0  0.00   0.0   0.108   0.000   28.5    38    0.00   700    1    100.0   30 
25/11/20  1:30a   12.7   13.2   12.7    91   11.3   0.0   ---  0.00   0.0   ---   12.7   12.8   12.8   11.3  1025.6  0.00   0.0     0     0.00      0     0.0  0.00   0.0   0.117   0.000   28.4    38    0.00   699    1    100.0   30 
25/11/20  2:00a   12.3   12.7   12.3    92   11.0   0.0   ---  0.00   0.0   ---   12.3   12.3   12.3   10.8  1025.3  0.00   0.0     0     0.00      0     0.0  0.00   0.0   0.126   0.000   28.3    38    0.00   703    1    100.0   30 
25/11/20  2:30a   12.1   12.3   12.1    93   11.0   0.0   ---  0.00   0.0   ---   12.1   12.2   12.2   10.7  1025.3  0.00   0.0     0     0.00      0     0.0  0.00   0.0   0.130   0.000   28.2    38    0.00   702    1    100.0   30 
25/11/20  3:00a   11.7   12.1   11.7    93   10.6   0.0   ---  0.00   0.0   ---   11.7   11.8   11.8   10.3  1025.0  0.00   0.0     0     0.00      0     0.0  0.00   0.0   0.138   0.000   27.9    38    0.00   703    1    100.0   30 
25/11/20  3:30a   11.3   11.7   11.3    94   10.4   0.0   ---  0.00   0.0   ---   11.3   11.5   11.5   10.0  1024.8  0.00   0.0     0     0.00      0     0.0  0.00   0.0   0.146   0.000   27.8    38    0.00   699    1    100.0   30 
25/11/20  4:00a   11.4   11.6   11.3    94   10.5   0.0   ---  0.00   0.0   ---   11.4   11.6   11.6   10.1  1024.7  0.00   0.0     0     0.00      0     0.0  0.00   0.0   0.144   0.000   27.8    38    0.00   702    1    100.0   30 
25/11/20  4:30a   11.3   11.4   11.2    94   10.3   0.0   ---  0.00   0.0   ---   11.3   11.4   11.4    9.9  1024.5  0.00   0.0     0     0.00      0     0.0  0.00   0.0   0.147   0.000   27.6    38    0.00   700    1    100.0   30 
25/11/20  5:00a   10.9   11.3   10.9    95   10.2   0.0   ---  0.00   0.0   ---   10.9   11.1   11.1    9.6  1024.5  0.00   0.0     0     0.00      0     0.0  0.00   0.0   0.154   0.000   27.4    38    0.00   673    1     98.4   30 
25/11/20  5:30a   10.7   10.9   10.7    95   10.0   0.0   ---  0.00   0.0   ---   10.7   10.9   10.9    9.4  1024.5  0.00   0.0     0     0.00      0     0.0  0.00   0.0   0.159   0.000   27.3    38    0.00   700    1    100.0   30 
25/11/20  6:00a   10.8   10.8   10.6    95   10.0   0.0   ---  0.00   0.0   ---   10.8   11.0   11.0    9.5  1025.0  0.00   0.0     2     0.09      9     0.0  0.00   0.0   0.157   0.000   27.2    38    0.00   700    1    100.0   30 
25/11/20  6:30a   11.2   11.2   10.7    96   10.6   0.0   ---  0.00   0.0   ---   11.2   11.3   11.3   10.2  1025.1  0.00   0.0    26     1.12     54     0.0  0.00   0.0   0.149   0.000   27.1    38    0.00   703    1    100.0   30 
25/11/20  7:00a   11.8   11.8   11.2    96   11.2   0.0   ---  0.00   0.0   ---   11.8   11.9   11.9   11.7  1025.2  0.00   0.0    97     4.17    139     0.0  0.00   0.0   0.137   0.000   27.0    38    0.03   701    1    100.0   30 
25/11/20  7:30a   12.9   12.9   11.8    96   12.3   0.0   ---  0.00   0.0   ---   12.9   13.1   13.1   14.1  1025.0  0.00   0.0   189     8.13    239     0.0  0.00   0.0   0.112   0.000   27.0    38    0.00   702    1    100.0   30 
25/11/20  8:00a   14.8   14.8   12.9    93   13.7   0.0   ---  0.00   0.0   ---   14.8   15.0   15.0   20.4  1025.0  0.00   0.0   306    13.16    362     0.6  0.13   0.9   0.073   0.000   27.1    38    0.13   700    1    100.0   30 
25/11/20  8:30a   17.2   17.2   14.8    79   13.5   0.0   ---  0.00   0.0   ---   17.2   17.3   17.3   24.0  1025.0  0.00   0.0   417    17.93    468     1.2  0.26   1.5   0.023   0.000   27.4    39    0.00   701    1    100.0   30 
25/11/20  9:00a   18.8   18.8   17.2    70   13.2   0.0   ---  0.00   0.0   ---   18.8   18.9   18.9   25.9  1024.9  0.00   0.0   520    22.36    570     1.8  0.39   2.2   0.000   0.010   27.2    39    0.25   701    1    100.0   30 
25/11/20  9:30a   20.6   20.6   18.8    63   13.3   0.0   ---  0.00   0.0   ---   20.6   20.4   20.4   27.6  1024.6  0.00   0.0   620    26.66    666     2.6  0.56   3.1   0.000   0.047   27.3    40    0.00   702    1    100.0   30 
25/11/20 10:00a   21.3   21.3   20.6    58   12.7   0.0   ---  0.00   0.0   ---   21.3   20.8   20.8   27.8  1024.3  0.00   0.0   712    30.62    752     3.5  0.75   4.0   0.000   0.063   27.7    40    0.38   703    1    100.0   30 
25/11/20 10:30a   22.2   22.2   21.3    58   13.5   0.0   ---  0.00   0.0   ---   22.2   22.0   22.0   28.9  1024.0  0.00   0.0   795    34.19    831     4.5  0.96   4.9   0.000   0.080   28.3    40    0.00   700    1    100.0   30 
25/11/20 11:00a   23.8   23.8   22.2    55   14.2   0.0   ---  0.00   0.0   ---   23.8   24.0   24.0   30.7  1023.6  0.00   0.0   867    37.29    896     5.4  1.16   5.9   0.000   0.113   28.7    40    0.51   703    1    100.0   30 
25/11/20 11:30a   24.5   24.5   23.8    55   14.9   0.0   ---  0.00   0.0   ---   24.5   24.7   24.7   31.2  1023.2  0.00   0.0   926    39.82    949     6.3  1.35   6.7   0.000   0.128   28.1    38    0.00   700    1    100.0   30 
25/11/20 12:00p   25.9   25.9   24.5    51   15.0   0.0   ---  0.00   0.0   ---   25.9   26.1   26.1   32.4  1022.9  0.00   0.0   972    41.80    991     7.1  1.52   7.4   0.000   0.159   26.8    40    0.58   701    1    100.0   30 
25/11/20 12:30p   27.2   27.3   25.9    46   14.6   0.0   ---  0.00   0.0   ---   27.2   27.1   27.1   33.2  1022.7  0.00   0.0  1005    43.22   1020     7.7  1.65   7.9   0.000   0.185   26.4    43    0.00   699    1    100.0   30 
25/11/20  1:00p   27.2   27.3   26.9    45   14.3   0.0   ---  0.00   0.0   ---   27.2   27.0   27.0   33.0  1022.4  0.00   0.0  1019    43.82   1023     8.0  1.71   8.0   0.000   0.185   26.9    43    0.63   700    1    100.0   30 
25/11/20  1:30p   27.7   28.0   27.2    44   14.3   0.0   ---  0.00   0.0   ---   27.7   27.5   27.5   33.4  1022.1  0.00   0.0  1019    43.82   1023     8.0  1.71   8.1   0.000   0.194   27.6    42    0.00   699    1    100.0   30 
25/11/20  2:00p   27.8   28.1   27.7    44   14.5   0.0   ---  0.00   0.0   ---   27.8   27.7   27.7   33.6  1021.5  0.00   0.0  1004    43.18   1014     7.8  1.67   8.0   0.000   0.198   27.9    42    0.66   701    1    100.0   30 
25/11/20  2:30p   28.8   29.3   27.8    42   14.6   0.0   ---  0.00   0.0   ---   28.8   29.2   29.2   35.1  1021.2  0.00   0.0   973    41.84    990     7.4  1.59   7.6   0.000   0.219   28.3    42    0.00   700    1    100.0   30 
25/11/20  3:00p   29.6   29.6   28.8    41   14.9   0.0   ---  0.00   0.0   ---   29.6   29.7   29.7   35.6  1020.8  0.00   0.0   927    39.87    953     6.7  1.44   7.1   0.000   0.234   28.6    42    0.63   701    1    100.0   30 
25/11/20  3:30p   29.8   29.8   29.2    41   15.2   0.0   ---  0.00   0.0   ---   29.8   30.0   30.0   35.9  1020.7  0.00   0.0   868    37.33    898     5.8  1.24   6.3   0.000   0.240   28.8    41    0.00   702    1    100.0   30 
25/11/20  4:00p   29.7   29.9   29.6    43   15.8   0.0   ---  0.00   0.0   ---   29.7   30.1   30.1   36.2  1020.3  0.00   0.0   807    34.71    846     4.7  1.01   5.5   0.000   0.237   29.1    41    0.53   700    1    100.0   30 
25/11/20  4:30p   29.3   30.0   29.2    44   15.8   0.0   ---  0.00   0.0   ---   29.3   29.8   29.8   33.4  1020.2  0.00   0.0   327    14.06    814     2.6  0.56   4.5   0.000   0.228   29.2    41    0.00   699    1    100.0   30 
25/11/20  5:00p   29.2   29.4   29.2    44   15.7   0.0   ---  0.00   0.0   ---   29.2   29.7   29.7   32.1  1020.1  0.00   0.0   213     9.16    287     1.5  0.32   2.1   0.000   0.227   29.2    41    0.20   700    1    100.0   30 
25/11/20  5:30p   30.8   30.8   29.2    40   15.6   0.0   ---  0.00   0.0   ---   30.8   30.9   30.9   36.8  1019.8  0.00   0.0   501    21.55    721     2.0  0.43   2.4   0.000   0.259   28.7    38    0.00   699    1    100.0   30 
25/11/20  6:00p   30.4   30.9   30.4    41   15.7   0.0   ---  0.00   0.0   ---   30.4   30.8   30.8   36.2  1019.7  0.00   0.0   421    18.11    540     1.4  0.30   1.8   0.000   0.252   28.3    40    0.30   699    1    100.0   30 
25/11/20  6:30p   30.8   30.9   30.4    41   16.1   0.0   ---  0.00   0.0   ---   30.8   31.1   31.1   35.5  1019.8  0.00   0.0   274    11.78    482     0.8  0.17   1.2   0.000   0.260   29.4    44    0.00   700    1    100.0   30 
25/11/20  7:00p   29.7   30.8   29.7    44   16.1   0.0   ---  0.00   0.0   ---   29.7   30.2   30.2   32.3  1019.9  0.00   0.0   132     5.68    244     0.3  0.06   0.6   0.000   0.236   30.4    45    0.15   700    1    100.0   30 
25/11/20  7:30p   29.3   29.7   29.3    45   16.1   0.0   ---  0.00   0.0   ---   29.3   29.8   29.8   31.2  1020.1  0.00   0.0   110     4.73    181     0.0  0.00   0.0   0.000   0.228   30.9    45    0.00   702    1    100.0   30 
25/11/20  8:00p   28.1   29.3   28.1    49   16.4   0.0   ---  0.00   0.0   ---   28.1   28.6   28.6   27.5  1020.4  0.00   0.0    31     1.33     46     0.0  0.00   0.0   0.000   0.204   31.3    44    0.05   677    1     99.0   30 
25/11/20  8:30p   26.5   28.1   26.5    52   15.8   0.0   ---  0.00   0.0   ---   26.5   26.7   26.7   25.2  1020.8  0.00   0.0     4     0.17     14     0.0  0.00   0.0   0.000   0.170   31.6    43    0.00   702    1    100.0   30 
25/11/20  9:00p   25.1   26.5   25.1    57   15.9   0.0   ---  0.00   0.0   ---   25.1   25.3   25.3   23.8  1021.0  0.00   0.0     0     0.00      0     0.0  0.00   0.0   0.000   0.140   31.7    43    0.03   701    1    100.0   30 
25/11/20  9:30p   23.6   25.1   23.6    64   16.4   0.0   ---  0.00   0.0   ---   23.6   24.3   24.3   22.8  1021.3  0.00   0.0     0     0.00      0     0.0  0.00   0.0   0.000   0.110   31.7    43    0.00   701    1    100.0   30 
25/11/20 10:00p   23.2   23.6   22.9    66   16.5   0.0   ---  0.00   0.0   ---   23.2   23.8   23.8   22.3  1022.4  0.00   0.0     0     0.00      0     0.0  0.00   0.0   0.000   0.101   31.7    42    0.03   700    1    100.0   30 
25/11/20 10:30p   22.3   23.2   22.3    66   15.6   0.0   ---  0.00   0.0   ---   22.3   22.5   22.5   21.0  1022.8  0.00   0.0     0     0.00      0     0.0  0.00   0.0   0.000   0.082   31.7    42    0.00   703    1    100.0   30 
25/11/20 11:00p   21.4   22.3   21.4    67   15.0   0.0   ---  0.00   0.0   ---   21.4   21.4   21.4   19.9  1023.2  0.00   0.0     0     0.00      0     0.0  0.00   0.0   0.000   0.064   31.6    42    0.03   661    1     96.6   30 
25/11/20 11:30p   20.6   21.4   20.6    65   13.8   0.0   ---  0.00   0.0   ---   20.6   20.6   20.6   18.9  1023.4  0.00   0.0     0     0.00      0     0.0  0.00   0.0   0.000   0.047   31.4    42    0.00   700    1    100.0   30 
26/11/20 12:00a   20.0   20.6   20.0    67   13.7   0.0   ---  0.00   0.0   ---   20.0   20.2   20.2   18.6  1023.4  0.00   0.0     0     0.00      0     0.0  0.00   0.0   0.000   0.035   31.3    41    0.03   702    1    100.0   30 
26/11/20 12:30a   18.8   20.0   18.8    71   13.5   0.0   ---  0.00   0.0   ---   18.8   18.9   18.9   17.3  1023.2  0.00   0.0     0     0.00      0     0.0  0.00   0.0   0.000   0.010   31.2    41    0.00   698    1    100.0   30 
26/11/20  1:00a   17.7   18.8   17.7    77   13.6   0.0   ---  0.00   0.0   ---   17.7   17.8   17.8   16.2  1023.0  0.00   0.0     0     0.00      0     0.0  0.00   0.0   0.013   0.000   30.9    41    0.03   700    1    100.0   30 
26/11/20  1:30a   17.0   17.7   17.0    81   13.7   0.0   ---  0.00   0.0   ---   17.0   17.2   17.2   15.6  1022.5  0.00   0.0     0     0.00      0     0.0  0.00   0.0   0.028   0.000   30.8    41    0.00   697    1    100.0   30 
26/11/20  2:00a   16.7   17.0   16.6    83   13.8   0.0   ---  0.00   0.0   ---   16.7   16.8   16.8   15.2  1022.4  0.00   0.0     0     0.00      0     0.0  0.00   0.0   0.035   0.000   30.6    41    0.03   699    1    100.0   30 
26/11/20  2:30a   16.4   16.7   16.4    84   13.7   0.0   ---  0.00   0.0   ---   16.4   16.6   16.6   14.9  1022.0  0.00   0.0     0     0.00      0     0.0  0.00   0.0   0.039   0.000   30.4    41    0.00   701    1    100.0   30 
26/11/20  3:00a   16.2   16.4   16.2    84   13.5   0.0   ---  0.00   0.0   ---   16.2   16.3   16.3   14.7  1021.9  0.00   0.0     0     0.00      0     0.0  0.00   0.0   0.045   0.000   30.3    41    0.03   701    1    100.0   30 
26/11/20  3:30a   15.8   16.2   15.8    86   13.5   0.0   ---  0.00   0.0   ---   15.8   15.9   15.9   14.3  1022.0  0.00   0.0     0     0.00      0     0.0  0.00   0.0   0.052   0.000   30.1    41    0.00   701    1    100.0   30 
26/11/20  4:00a   15.4   15.8   15.4    87   13.2   0.0   ---  0.00   0.0   ---   15.4   15.5   15.5   13.9  1021.9  0.00   0.0     0     0.00      0     0.0  0.00   0.0   0.061   0.000   29.9    41    0.00   698    1    100.0   30 
26/11/20  4:30a   15.0   15.4   15.0    89   13.2   0.0   ---  0.00   0.0   ---   15.0   15.1   15.1   13.5  1022.2  0.00   0.0     0     0.00      0     0.0  0.00   0.0   0.069   0.000   29.7    41    0.00   701    1    100.0   30 
26/11/20  5:00a   14.8   15.1   14.8    90   13.2   0.0   ---  0.00   0.0   ---   14.8   14.9   14.9   13.3  1022.5  0.00   0.0     0     0.00      0     0.0  0.00   0.0   0.073   0.000   29.6    41    0.00   699    1    100.0   30 
26/11/20  5:30a   14.1   14.8   14.1    91   12.6   0.0   ---  0.00   0.0   ---   14.1   14.1   14.1   12.4  1023.1  0.00   0.0     0     0.00      0     0.0  0.00   0.0   0.089   0.000   29.4    41    0.00   701    1    100.0   30 
26/11/20  6:00a   14.1   14.1   13.9    92   12.8   0.0   ---  0.00   0.0   ---   14.1   14.2   14.2   12.6  1024.0  0.00   0.0     2     0.09      9     0.0  0.00   0.0   0.089   0.000   29.3    41    0.00   701    1    100.0   30 
26/11/20  6:30a   14.4   14.4   13.8    94   13.4   0.0   ---  0.00   0.0   ---   14.4   14.6   14.6   13.4  1024.6  0.00   0.0    34     1.46     63     0.0  0.00   0.0   0.082   0.000   29.2    41    0.00   703    1    100.0   30 
26/11/20  7:00a   15.5   15.5   14.4    94   14.5   0.0   ---  0.00   0.0   ---   15.5   15.7   15.7   14.8  1025.4  0.00   0.0    51     2.19    120     0.0  0.00   0.0   0.059   0.000   29.1    41    0.03   700    1    100.0   30 
26/11/20  7:30a   16.7   16.7   15.6    87   14.5   0.0   ---  0.00   0.0   ---   16.7   16.9   16.9   16.8  1026.0  0.00   0.0   116     4.99    176     0.0  0.00   0.0   0.034   0.000   28.9    41    0.00   663    1     96.9   30 
26/11/20  8:00a   17.1   17.1   16.7    82   14.0   0.0   ---  0.00   0.0   ---   17.1   17.2   17.2   19.1  1026.7  0.00   0.0   119     5.12    304     0.0  0.00   0.0   0.027   0.000   29.1    41    0.08   700    1    100.0   30 
26/11/20  8:30a   18.3   18.4   17.1    75   13.8   0.0   ---  0.00   0.0   ---   18.3   18.5   18.5   22.8  1027.2  0.00   0.0   273    11.74    596     0.8  0.17   1.1   0.000   0.000   28.3    41    0.00   701    1    100.0   30 
26/11/20  9:00a   18.2   18.3   18.2    75   13.7   0.0   ---  0.00   0.0   ---   18.2   18.4   18.4   20.9  1027.5  0.00   0.0   184     7.91    292     0.6  0.13   1.2   0.002   0.000   25.0    40    0.13   701    1    100.0   30 
26/11/20  9:30a   18.8   18.8   18.2    71   13.4   0.0   ---  0.00   0.0   ---   18.8   18.9   18.9   22.9  1027.6  0.00   0.0   302    12.99    779     1.3  0.28   2.2   0.000   0.009   23.5    42    0.00   701    1    100.0   30 
26/11/20 10:00a   18.5   18.8   18.4    72   13.4   0.0   ---  0.00   0.0   ---   18.5   18.6   18.6   21.6  1028.0  0.00   0.0   251    10.79    353     1.4  0.30   2.0   0.000   0.003   23.6    44    0.15   702    1    100.0   30 
26/11/20 10:30a   18.4   18.6   18.4    73   13.5   0.0   ---  0.00   0.0   ---   18.4   18.5   18.5   21.7  1028.3  0.00   0.0   288    12.39    563     1.9  0.41   3.3   0.000   0.001   24.1    43    0.00   700    1    100.0   30 
26/11/20 11:00a   18.7   18.8   18.4    71   13.3   0.0   ---  0.00   0.0   ---   18.7   18.8   18.8   22.4  1028.5  0.00   0.0   346    14.88    519     2.3  0.49   3.1   0.000   0.007   24.2    43    0.18   701    1    100.0   30 
26/11/20 11:30a   18.6   18.8   18.4    71   13.2   0.0   ---  0.00   0.0   ---   18.6   18.7   18.7   22.2  1028.8  0.00   0.0   343    14.75    557     2.5  0.54   3.6   0.000   0.006   24.3    42    0.00   683    1     99.9   30 
26/11/20 12:00p   19.8   19.8   18.6    65   13.1   0.0   ---  0.00   0.0   ---   19.8   19.9   19.9   25.7  1028.7  0.00   0.0   641    27.57    889     5.0  1.07   7.1   0.000   0.031   24.4    43    0.28   700    1    100.0   30 
26/11/20 12:30p   20.2   20.4   19.8    61   12.4   0.0   ---  0.00   0.0   ---   20.2   20.0   20.0   25.6  1028.6  0.00   0.0   599    25.76    800     5.0  1.07   8.2   0.000   0.038   24.6    43    0.00   701    1    100.0   30 
26/11/20  1:00p   21.7   21.7   20.2    58   13.1   0.0   ---  0.00   0.0   ---   21.7   21.3   21.3   27.3  1028.7  0.00   0.0  1021    43.91   1420     7.1  1.52   9.1   0.000   0.071   24.9    43    0.46   700    1    100.0   30 
26/11/20  1:30p   20.4   21.7   20.3    61   12.6   0.0   ---  0.00   0.0   ---   20.4   20.2   20.2   25.3  1028.9  0.00   0.0   542    23.31    775     6.0  1.29   9.3   0.000   0.043   26.4    43    0.00   703    1    100.0   30 
26/11/20  2:00p   20.7   21.1   20.4    59   12.4   0.0   ---  0.00   0.0   ---   20.7   20.3   20.3   25.9  1028.9  0.00   0.0   979    42.10   1339     7.0  1.50   8.8   0.000   0.050   27.2    42    0.48   701    1    100.0   30 
26/11/20  2:30p   21.3   21.3   20.2    57   12.5   0.0   ---  0.00   0.0   ---   21.3   20.8   20.8   26.8  1028.6  0.00   0.0   873    37.54   1234     6.0  1.29   7.7   0.000   0.063   27.8    42    0.00   701    1    100.0   30 
26/11/20  3:00p   21.2   21.9   20.8    56   12.0   0.0   ---  0.00   0.0   ---   21.2   20.5   20.5   26.6  1028.5  0.00   0.0   731    31.44   1215     4.9  1.05   7.2   0.000   0.059   28.2    41    0.00   698    1    100.0   30 
26/11/20  3:30p   21.6   21.7   20.8    53   11.6   0.0   ---  0.00   0.0   ---   21.6   20.9   20.9   26.7  1028.4  0.00   0.0   629    27.05   1093     4.7  1.01   6.1   0.000   0.068   27.2    40    0.46   698    1    100.0   30 
26/11/20  4:00p   21.8   22.1   21.6    50   10.9   0.0   ---  0.00   0.0   ---   21.8   21.1   21.1   27.1  1028.4  0.00   0.0   834    35.87    912     4.6  0.99   5.1   0.000   0.072   26.5    39    0.43   702    1    100.0   30 
26/11/20  4:30p   21.8   21.8   21.3    48   10.3   0.0   ---  0.00   0.0   ---   21.8   21.1   21.1   26.8  1028.3  0.00   0.0   731    31.44    773     3.6  0.77   4.0   0.000   0.073   26.0    38    0.00   701    1    100.0   30 
26/11/20  5:00p   21.3   21.9   21.3    49   10.1   0.0   ---  0.00   0.0   ---   21.3   20.3   20.3   26.1  1028.4  0.00   0.0   639    27.48    686     2.7  0.58   3.1   0.000   0.061   25.7    37    0.41   700    1    100.0   30 
26/11/20  5:30p   20.9   21.3   20.9    51   10.4   0.0   ---  0.00   0.0   ---   20.9   20.1   20.1   25.6  1028.5  0.00   0.0   539    23.18    591     1.9  0.41   2.3   0.000   0.053   25.5    37    0.00   699    1    100.0   30 
26/11/20  6:00p   20.7   21.0   20.6    49    9.6   0.0   ---  0.00   0.0   ---   20.7   19.8   19.8   25.0  1028.4  0.00   0.0   439    18.88    483     1.2  0.26   1.5   0.000   0.049   26.6    39    0.28   695    1    100.0   30 
26/11/20  6:30p   19.9   20.7   19.9    47    8.3   0.0   ---  0.00   0.0   ---   19.9   19.1   19.1   23.5  1028.8  0.00   0.0   332    14.28    383     0.8  0.17   1.0   0.000   0.034   27.6    38    0.00   703    1    100.0   30 
26/11/20  7:00p   19.1   19.9   19.1    51    8.7   0.0   ---  0.00   0.0   ---   19.1   18.3   18.3   21.6  1028.9  0.00   0.0   227     9.76    279     0.2  0.04   0.6   0.000   0.016   27.9    38    0.18   700    1    100.0   30 
26/11/20  7:30p   18.3   19.2   18.3    54    8.9   0.0   ---  0.00   0.0   ---   18.3   17.6   17.6   18.6  1029.2  0.00   0.0    98     4.21    167     0.0  0.00   0.0   0.000   0.000   28.2    37    0.00   698    1    100.0   30 
26/11/20  8:00p   17.2   18.3   17.2    57    8.6   0.0   ---  0.00   0.0   ---   17.2   16.5   16.5   15.0  1029.6  0.00   0.0    22     0.95     32     0.0  0.00   0.0   0.023   0.000   28.3    37    0.05   700    1    100.0   30 
26/11/20  8:30p   16.3   17.2   16.3    60    8.5   0.0   ---  0.00   0.0   ---   16.3   15.6   15.6   13.9  1030.0  0.00   0.0     3     0.13     11     0.0  0.00   0.0   0.043   0.000   28.2    37    0.00   700    1    100.0   30 
26/11/20  9:00p   15.7   16.3   15.7    65    9.1   0.0   ---  0.00   0.0   ---   15.7   15.2   15.2   13.4  1029.9  0.00   0.0     0     0.00      0     0.0  0.00   0.0   0.056   0.000   28.1    37    0.00   700    1    100.0   30 
26/11/20  9:30p   15.0   15.7   15.0    68    9.1   0.0   ---  0.00   0.0   ---   15.0   14.6   14.6   12.8  1030.1  0.00   0.0     0     0.00      0     0.0  0.00   0.0   0.069   0.000   27.9    37    0.00   703    1    100.0   30 
26/11/20 10:00p   14.4   15.0   14.4    71    9.2   0.0   ---  0.00   0.0   ---   14.4   14.1   14.1   12.3  1030.4  0.00   0.0     0     0.00      0     0.0  0.00   0.0   0.081   0.000   27.8    37    0.03   673    1     98.4   30 
26/11/20 10:30p   14.1   14.4   14.1    73    9.3   0.0   ---  0.00   0.0   ---   14.1   13.8   13.8   12.0  1030.4  0.00   0.0     0     0.00      0     0.0  0.00   0.0   0.088   0.000   27.8    37    0.00   702    1    100.0   30 
26/11/20 11:00p   13.7   14.2   13.7    74    9.2   0.0   ---  0.00   0.0   ---   13.7   13.4   13.4   11.6  1030.2  0.00   0.0     0     0.00      0     0.0  0.00   0.0   0.096   0.000   27.7    37    0.03   703    1    100.0   30 
26/11/20 11:30p   13.2   13.7   13.2    75    8.8   0.0   ---  0.00   0.0   ---   13.2   12.8   12.8   11.1  1030.0  0.00   0.0     0     0.00      0     0.0  0.00   0.0   0.108   0.000   27.4    37    0.00   702    1    100.0   30 
27/11/20 12:00a   12.5   13.2   12.5    77    8.6   0.0   ---  0.00   0.0   ---   12.5   12.3   12.3   10.5  1029.9  0.00   0.0     0     0.00      0     0.0  0.00   0.0   0.122   0.000   27.3    37    0.03   703    1    100.0   30 
27/11/20 12:30a   11.9   12.5   11.9    79    8.4   0.0   ---  0.00   0.0   ---   11.9   11.8   11.8   10.0  1029.4  0.00   0.0     0     0.00      0     0.0  0.00   0.0   0.133   0.000   27.2    37    0.00   702    1    100.0   30 
27/11/20  1:00a   11.2   11.9   11.2    82    8.2   0.0   ---  0.00   0.0   ---   11.2   11.1   11.1    9.3  1029.3  0.00   0.0     0     0.00      0     0.0  0.00   0.0   0.149   0.000   27.0    37    0.03   703    1    100.0   30 
27/11/20  1:30a   10.4   11.2   10.4    85    8.0   0.0   ---  0.00   0.0   ---   10.4   10.4   10.4    8.6  1028.7  0.00   0.0     0     0.00      0     0.0  0.00   0.0   0.166   0.000   26.8    37    0.00   678    1     99.1   30 
27/11/20  2:00a   10.2   10.4   10.2    87    8.1   0.0   ---  0.00   0.0   ---   10.2   10.2   10.2    8.4  1028.3  0.00   0.0     0     0.00      0     0.0  0.00   0.0   0.170   0.000   26.7    37    0.00   701    1    100.0   30 
27/11/20  2:30a    9.8   10.2    9.8    92    8.5   0.0   ---  0.00   0.0   ---    9.8   10.0   10.0    8.2  1027.8  0.00   0.0     0     0.00      0     0.0  0.00   0.0   0.178   0.000   26.5    37    0.00   674    1     98.5   30 
27/11/20  3:00a    9.5    9.8    9.5    89    7.8   0.0   ---  0.00   0.0   ---    9.5    9.7    9.7    7.8  1027.2  0.00   0.0     0     0.00      0     0.0  0.00   0.0   0.184   0.000   26.3    37    0.00   701    1    100.0   30 
27/11/20  3:30a    9.1    9.5    9.1    90    7.6   0.0   ---  0.00   0.0   ---    9.1    9.2    9.2    7.4  1026.9  0.00   0.0     0     0.00      0     0.0  0.00   0.0   0.192   0.000   26.2    37    0.00   700    1    100.0   30 
27/11/20  4:00a    8.8    9.1    8.8    91    7.4   0.0   ---  0.00   0.0   ---    8.8    8.9    8.9    7.1  1026.8  0.00   0.0     0     0.00      0     0.0  0.00   0.0   0.198   0.000   26.0    37    0.00   700    1    100.0   30 
27/11/20  4:30a    8.5    8.8    8.5    91    7.1   0.0   ---  0.00   0.0   ---    8.5    8.6    8.6    6.8  1026.3  0.00   0.0     0     0.00      0     0.0  0.00   0.0   0.205   0.000   25.9    37    0.00   677    1     99.0   30 
27/11/20  5:00a    8.3    8.5    8.3    92    7.1   0.0   ---  0.00   0.0   ---    8.3    8.4    8.4    6.6  1026.2  0.00   0.0     0     0.00      0     0.0  0.00   0.0   0.209   0.000   25.7    37    0.00   695    1    100.0   30 
27/11/20  5:30a    8.1    8.3    8.1    93    7.0   0.0   ---  0.00   0.0   ---    8.1    8.2    8.2    6.4  1026.2  0.00   0.0     0     0.00      0     0.0  0.00   0.0   0.213   0.000   25.6    37    0.00   640    1     93.6   30 
27/11/20  6:00a    7.9    8.1    7.9    93    6.9   0.0   ---  0.00   0.0   ---    7.9    8.1    8.1    6.2  1026.3  0.00   0.0     2     0.09     11     0.0  0.00   0.0   0.216   0.000   25.5    37    0.00   701    1    100.0   30 
27/11/20  6:30a    8.3    8.3    7.9    93    7.2   0.0   ---  0.00   0.0   ---    8.3    8.4    8.4    6.9  1026.4  0.00   0.0    32     1.38     60     0.0  0.00   0.0   0.209   0.000   25.3    38    0.00   700    1    100.0   30 
27/11/20  7:00a    9.3    9.3    8.3    94    8.4   0.0   ---  0.00   0.0   ---    9.3    9.5    9.5    8.9  1026.1  0.00   0.0   101     4.34    148     0.0  0.00   0.0   0.189   0.000   25.2    38    0.03   702    1    100.0   30 
27/11/20  7:30a   10.7   10.7    9.3    89    9.0   0.0   ---  0.00   0.0   ---   10.7   10.8   10.8   11.5  1026.2  0.00   0.0   199     8.56    258     0.0  0.00   0.0   0.159   0.000   25.2    37    0.00   702    1    100.0   30 
27/11/20  8:00a   12.7   12.7   10.7    83    9.9   0.0   ---  0.00   0.0   ---   12.7   12.6   12.6   17.7  1026.3  0.00   0.0   305    13.12    339     0.5  0.11   0.7   0.118   0.000   25.4    38    0.13   701    1    100.0   30 
27/11/20  8:30a   14.8   14.8   12.7    74   10.2   0.0   ---  0.00   0.0   ---   14.8   14.6   14.6   20.5  1026.2  0.00   0.0   394    16.94    464     1.0  0.21   1.3   0.073   0.000   25.4    37    0.00   683    1     99.9   30 
27/11/20  9:00a   16.4   16.4   14.8    68   10.5   0.0   ---  0.00   0.0   ---   16.4   16.1   16.1   22.7  1026.2  0.00   0.0   513    22.06    571     1.7  0.36   2.1   0.041   0.000   24.0    39    0.00   702    1    100.0   30 
27/11/20  9:30a   18.3   18.3   16.4    64   11.3   0.0   ---  0.00   0.0   ---   18.3   18.1   18.1   25.0  1026.0  0.00   0.0   619    26.62    668     2.4  0.51   2.9   0.001   0.000   23.5    39    0.23   699    1    100.0   30 
27/11/20 10:00a   20.2   20.2   18.3    61   12.4   0.0   ---  0.00   0.0   ---   20.2   20.0   20.0   26.9  1025.5  0.00   0.0   712    30.62    761     3.3  0.71   3.8   0.000   0.038   23.3    39    0.38   700    1    100.0   30 
27/11/20 10:30a   22.9   22.9   20.2    55   13.4   0.0   ---  0.00   0.0   ---   22.9   22.9   22.9   29.3  1025.1  0.00   0.0   756    32.51    939     4.1  0.88   4.9   0.000   0.095   24.3    41    0.00   675    1     98.7   30 
27/11/20 11:00a   25.7   25.7   22.9    49   14.2   0.0   ---  0.00   0.0   ---   25.7   25.7   25.7   31.8  1024.7  0.00   0.0   809    34.79    998     4.8  1.03   5.8   0.000   0.153   25.7    41    0.46   702    1    100.0   30 
27/11/20 11:30a   28.4   28.4   25.7    43   14.7   0.0   ---  0.00   0.0   ---   28.4   28.6   28.6   35.6  1024.2  0.00   0.0   979    42.10   1121     5.9  1.26   6.8   0.000   0.211   26.7    41    0.00   702    1    100.0   30 
27/11/20 12:00p   29.6   29.9   28.4    35   12.5   0.0   ---  0.00   0.0   ---   29.6   29.1   29.1   35.4  1024.0  0.00   0.0   993    42.70   1121     6.3  1.35   7.7   0.000   0.234   27.7    41    0.61   699    1    100.0   30 
27/11/20 12:30p   30.0   30.3   29.3    35   12.9   0.0   ---  0.00   0.0   ---   30.0   29.6   29.6   35.8  1023.6  0.00   0.0   729    31.35   1287     5.8  1.24   8.2   0.000   0.243   28.4    40    0.00   701    1    100.0   30 
27/11/20  1:00p   29.9   30.0   29.8    35   12.8   0.0   ---  0.00   0.0   ---   29.9   29.5   29.5   34.3  1023.1  0.00   0.0   493    21.20    661     4.3  0.92   5.1   0.000   0.241   28.9    41    0.46   703    1    100.0   30 
27/11/20  1:30p   30.6   30.6   29.8    35   13.4   0.0   ---  0.00   0.0   ---   30.6   30.2   30.2   34.9  1022.6  0.00   0.0   480    20.64   1055     4.9  1.05   8.6   0.000   0.256   28.9    42    0.00   701    1    100.0   30 
27/11/20  2:00p   31.9   31.9   30.6    34   14.1   0.0   ---  0.00   0.0   ---   31.9   31.6   31.6   37.8  1022.0  0.00   0.0  1059    45.54   1164     7.2  1.54   8.1   0.000   0.284   27.7    40    0.53   702    1    100.0   30 
27/11/20  2:30p   33.1   33.2   32.0    32   14.2   0.0   ---  0.00   0.0   ---   33.1   33.0   33.0   39.4  1021.4  0.00   0.0  1054    45.33   1232     7.0  1.50   8.1   0.000   0.308   27.3    43    0.00   700    1    100.0   30 
27/11/20  3:00p   33.3   33.3   33.1    33   14.9   0.0   ---  0.00   0.0   ---   33.3   33.4   33.4   39.7  1021.0  0.00   0.0   810    34.83   1058     5.6  1.20   7.1   0.000   0.313   25.7    40    0.66   702    1    100.0   30 
27/11/20  3:30p   33.0   33.3   32.9    33   14.6   0.0   ---  0.00   0.0   ---   33.0   32.9   32.9   39.0  1020.5  0.00   0.0   675    29.03    802     4.4  0.94   5.0   0.000   0.306   25.4    42    0.00   700    1    100.0   30 
27/11/20  4:00p   34.4   34.4   33.0    31   14.8   0.0   ---  0.00   0.0   ---   34.4   34.5   34.5   40.3  1020.0  0.00   0.0   606    26.06    840     3.6  0.77   4.2   0.000   0.334   25.1    40    0.46   701    1    100.0   30 
27/11/20  4:30p   35.5   35.5   34.4    27   13.6   0.0   ---  0.00   0.0   ---   35.5   35.3   35.3   40.9  1019.6  0.00   0.0   554    23.83    795     3.0  0.64   3.8   0.000   0.358   25.4    44    0.00   700    1    100.0   30 
27/11/20  5:00p   35.5   35.7   35.4    25   12.5   0.0   ---  0.00   0.0   ---   35.5   34.9   34.9   40.8  1019.4  0.00   0.0   583    25.07    677     2.7  0.58   2.9   0.000   0.358   27.7    45    0.41   700    1    100.0   30 
27/11/20  5:30p   36.2   36.4   35.5    24   12.4   0.0   ---  0.00   0.0   ---   36.2   35.6   35.6   41.4  1019.1  0.00   0.0   556    23.91    626     2.2  0.47   2.4   0.000   0.372   29.1    45    0.00   700    1    100.0   30 
27/11/20  6:00p   35.3   36.2   35.3    25   12.3   0.0   ---  0.00   0.0   ---   35.3   34.7   34.7   39.0  1018.7  0.00   0.0   309    13.29    466     1.3  0.28   1.8   0.000   0.354   29.8    45    0.30   702    1    100.0   30 
27/11/20  6:30p   35.2   35.3   35.1    27   13.4   0.0   ---  0.00   0.0   ---   35.2   34.9   34.9   39.1  1018.4  0.00   0.0   272    11.70    376     0.9  0.19   1.1   0.000   0.352   30.4    46    0.00   699    1    100.0   30 
27/11/20  7:00p   34.9   35.2   34.9    29   14.3   0.0   ---  0.00   0.0   ---   34.9   34.9   34.9   37.6  1018.4  0.00   0.0   163     7.01    265     0.6  0.13   0.8   0.000   0.346   30.7    46    0.18   700    1    100.0   30 
27/11/20  7:30p   33.1   34.9   33.1    35   15.6   0.0   ---  0.00   0.0   ---   33.1   33.3   33.3   34.0  1018.4  0.00   0.0    62     2.67     97     0.0  0.00   0.0   0.000   0.308   30.9    46    0.00   702    1    100.0   30 
27/11/20  8:00p   30.5   33.1   30.5    46   17.6   0.0   ---  0.00   0.0   ---   30.5   31.5   31.5   30.6  1018.6  0.00   0.0    25     1.08     40     0.0  0.00   0.0   0.000   0.253   31.2    45    0.05   699    1    100.0   30 
27/11/20  8:30p   28.5   30.5   28.5    56   18.9   0.0   ---  0.00   0.0   ---   28.5   29.8   29.8   28.7  1018.7  0.00   0.0     1     0.04      7     0.0  0.00   0.0   0.000   0.212   31.2    45    0.00   701    1    100.0   30 
27/11/20  9:00p   27.4   28.5   27.4    56   17.9   0.0   ---  0.00   0.0   ---   27.4   28.2   28.2   27.0  1018.9  0.00   0.0     0     0.00      0     0.0  0.00   0.0   0.000   0.190   31.2    45    0.03   701    1    100.0   30 
27/11/20  9:30p   26.6   27.4   26.6    59   17.9   0.0   ---  0.00   0.0   ---   26.6   27.2   27.2   26.0  1019.0  0.00   0.0     0     0.00      0     0.0  0.00   0.0   0.000   0.171   31.3    44    0.00   700    1    100.0   30 
27/11/20 10:00p   25.7   26.6   25.7    62   17.9   0.0   ---  0.00   0.0   ---   25.7   26.4   26.4   25.2  1019.2  0.00   0.0     0     0.00      0     0.0  0.00   0.0   0.000   0.154   31.3    44    0.05   701    1    100.0   30 
27/11/20 10:30p   24.8   25.7   24.8    66   18.0   0.0   ---  0.00   0.0   ---   24.8   25.6   25.6   24.4  1019.2  0.00   0.0     0     0.00      0     0.0  0.00   0.0   0.000   0.135   31.2    44    0.00   702    1    100.0   30 
27/11/20 11:00p   24.7   24.8   24.6    63   17.2   0.0   ---  0.00   0.0   ---   24.7   25.2   25.2   24.0  1019.0  0.00   0.0     0     0.00      0     0.0  0.00   0.0   0.000   0.132   31.2    44    0.03   702    1    100.0   30 
27/11/20 11:30p   24.2   24.7   24.2    66   17.5   0.0   ---  0.00   0.0   ---   24.2   24.9   24.9   23.7  1018.5  0.00   0.0     0     0.00      0     0.0  0.00   0.0   0.000   0.123   31.1    44    0.00   701    1    100.0   30 
28/11/20 12:00a   23.5   24.2   23.5    68   17.3   0.0   ---  0.00   0.0   ---   23.5   24.3   24.3   23.1  1018.7  0.00   0.0     0     0.00      0     0.0  0.00   0.0   0.000   0.108   30.9    44    0.03   701    1    100.0   30 
28/11/20 12:30a   22.4   23.5   22.4    69   16.5   0.0   ---  0.00   0.0   ---   22.4   22.9   22.9   21.6  1018.7  0.00   0.0     0     0.00      0     0.0  0.00   0.0   0.000   0.086   30.8    44    0.00   676    1     98.8   30 
28/11/20  1:00a   22.3   22.4   22.2    64   15.2   0.0   ---  0.00   0.0   ---   22.3   22.5   22.5   21.2  1017.8  0.00   0.0     0     0.00      0     0.0  0.00   0.0   0.000   0.083   30.7    44    0.00   699    1    100.0   30 
28/11/20  1:30a   21.8   22.3   21.8    67   15.4   0.0   ---  0.00   0.0   ---   21.8   21.9   21.9   20.6  1018.9  0.00   0.0     0     0.00      0     0.0  0.00   0.0   0.000   0.072   30.6    44    0.03   701    1    100.0   30 
28/11/20  2:00a   20.4   21.8   20.4    75   15.8   0.0   ---  0.00   0.0   ---   20.4   20.9   20.9   19.7  1019.8  0.00   0.0     0     0.00      0     0.0  0.00   0.0   0.000   0.043   30.4    44    0.03   700    1    100.0   30 
28/11/20  2:30a   18.7   20.4   18.7    77   14.6   0.0   ---  0.00   0.0   ---   18.7   19.0   19.0   17.7  1020.4  0.00   0.0     0     0.00      0     0.0  0.00   0.0   0.000   0.007   30.3    44    0.00   703    1    100.0   30 
28/11/20  3:00a   18.3   18.7   18.3    78   14.4   0.0   ---  0.00   0.0   ---   18.3   18.6   18.6   17.2  1023.5  0.00   0.0     0     0.00      0     0.0  0.00   0.0   0.001   0.000   30.1    43    0.03   699    1    100.0   30 
28/11/20  3:30a   18.1   18.3   18.0    78   14.2   0.0   ---  0.00   0.0   ---   18.1   18.3   18.3   16.9  1023.1  0.00   0.0     0     0.00      0     0.0  0.00   0.0   0.006   0.000   29.9    43    0.00   700    1    100.0   30 
28/11/20  4:00a   17.8   18.1   17.8    78   13.9   0.0   ---  0.00   0.0   ---   17.8   18.1   18.1   16.7  1021.2  0.00   0.0     0     0.00      0     0.0  0.00   0.0   0.010   0.000   29.8    43    0.03   700    1    100.0   30 
28/11/20  4:30a   17.5   17.8   17.5    82   14.4   0.0   ---  0.00   0.0   ---   17.5   17.8   17.8   16.4  1019.4  0.00   0.0     0     0.00      0     0.0  0.00   0.0   0.017   0.000   29.7    43    0.00   700    1    100.0   30 
28/11/20  5:00a   17.4   17.5   17.4    83   14.5   0.0   ---  0.00   0.0   ---   17.4   17.7   17.7   16.4  1019.3  0.00   0.0     0     0.00      0     0.0  0.00   0.0   0.019   0.000   29.5    43    0.00   701    1    100.0   30 
28/11/20  5:30a   17.2   17.4   17.2    84   14.4   0.0   ---  0.00   0.0   ---   17.2   17.4   17.4   16.0  1018.9  0.00   0.0     0     0.00      0     0.0  0.00   0.0   0.024   0.000   29.4    43    0.03   698    1    100.0   30 
28/11/20  6:00a   17.1   17.2   17.1    85   14.6   0.0   ---  0.00   0.0   ---   17.1   17.4   17.4   16.1  1019.0  0.00   0.0     0     0.00      0     0.0  0.00   0.0   0.025   0.000   29.3    43    0.00   700    1    100.0   30 
28/11/20  6:30a   17.2   17.2   17.1    85   14.6   0.0   ---  0.00   0.0   ---   17.2   17.4   17.4   16.3  1019.6  0.00   0.0    13     0.56     23     0.0  0.00   0.0   0.024   0.000   29.2    43    0.00   700    1    100.0   30 
28/11/20  7:00a   17.3   17.3   17.2    85   14.8   0.0   ---  0.00   0.0   ---   17.3   17.6   17.6   16.7  1019.8  0.00   0.0    31     1.33     46     0.0  0.00   0.0   0.021   0.000   29.1    43    0.03   701    1    100.0   30 
28/11/20  7:30a   17.7   17.7   17.3    84   14.9   0.0   ---  0.00   0.0   ---   17.7   18.0   18.0   17.7  1019.2  0.00   0.0    81     3.48    185     0.0  0.00   0.0   0.014   0.000   28.9    43    0.00   701    1    100.0   30 
28/11/20  8:00a   17.9   17.9   17.7    83   15.0   0.0   ---  0.00   0.0   ---   17.9   18.3   18.3   19.1  1018.9  0.00   0.0    68     2.92    111     0.0  0.00   0.0   0.008   0.000   28.9    43    0.05   701    1    100.0   30 
28/11/20  8:30a   18.1   18.1   17.9    84   15.3   0.0   ---  0.00   0.0   ---   18.1   18.4   18.4   20.4  1017.8  0.00   0.0   132     5.68    213     0.2  0.04   0.9   0.006   0.000   28.9    43    0.00   701    1    100.0   30 
28/11/20  9:00a   18.9   18.9   18.1    80   15.4   0.0   ---  0.00   0.0   ---   18.9   19.4   19.4   24.2  1016.4  0.00   0.0   322    13.85    642     1.3  0.28   2.1   0.000   0.013   28.9    43    0.13   701    1    100.0   30 
28/11/20  9:30a   21.3   21.3   19.0    71   15.9   0.0   ---  0.00   0.0   ---   21.3   21.5   21.5   26.9  1017.4  0.00   0.0   419    18.02    779     1.9  0.41   2.5   0.000   0.063   29.1    43    0.00   702    1    100.0   30 
28/11/20 10:00a   20.5   21.3   20.5    73   15.5   0.0   ---  0.00   0.0   ---   20.5   20.9   20.9   22.2  1018.3  0.00   0.0   137     5.89    302     0.7  0.15   1.4   0.000   0.045   29.2    43    0.15   700    1    100.0   30 
28/11/20 10:30a   20.9   20.9   20.5    73   15.9   0.0   ---  0.00   0.0   ---   20.9   21.2   21.2   23.1  1017.4  0.00   0.0   188     8.09    241     1.2  0.26   1.4   0.000   0.054   29.3    43    0.00   658    1     96.2   30 
28/11/20 11:00a   21.9   22.0   20.9    69   16.0   0.0   ---  0.00   0.0   ---   21.9   22.2   22.2   24.7  1018.8  0.00   0.0   246    10.58    383     1.6  0.34   2.2   0.000   0.075   29.3    43    0.13   702    1    100.0   30 
28/11/20 11:30a   22.1   22.1   21.9    69   16.1   0.0   ---  0.00   0.0   ---   22.1   22.3   22.3   24.1  1017.9  0.00   0.0   192     8.26    260     1.3  0.28   1.9   0.000   0.078   29.4    43    0.00   699    1    100.0   30 
28/11/20 12:00p   22.7   22.8   22.0    67   16.3   0.0   ---  0.00   0.0   ---   22.7   23.2   23.2   25.8  1017.9  0.00   0.0   273    11.74    311     2.0  0.43   2.2   0.000   0.091   29.5    43    0.15   700    1    100.0   30 
28/11/20 12:30p   23.2   23.2   22.7    68   17.0   0.0   ---  0.00   0.0   ---   23.2   23.9   23.9   26.4  1019.1  0.00   0.0   253    10.88    338     1.9  0.41   2.6   0.000   0.102   29.6    43    0.00   701    1    100.0   30 
28/11/20  1:00p   23.3   23.3   23.2    65   16.3   0.0   ---  0.00   0.0   ---   23.3   23.9   23.9   27.3  1018.9  0.00   0.0   332    14.28    450     2.6  0.56   3.5   0.000   0.103   29.7    43    0.18   703    1    100.0   30 
28/11/20  1:30p   22.9   23.3   22.9    61   15.0   0.0   ---  0.00   0.0   ---   22.9   23.2   23.2   27.2  1019.4  0.00   0.0   397    17.07    548     3.1  0.66   4.1   0.000   0.095   29.8    43    0.00   702    1    100.0   30 
28/11/20  2:00p   21.9   22.9   21.9    62   14.3   0.0   ---  0.00   0.0   ---   21.9   21.8   21.8   24.7  1019.9  0.00   0.0   302    12.99    464     2.3  0.49   3.4   0.000   0.074   29.9    43    0.20   702    1    100.0   30 
28/11/20  2:30p   21.5   21.9   21.5    60   13.4   0.0   ---  0.00   0.0   ---   21.5   21.2   21.2   22.1  1018.5  0.00   0.0   146     6.28    197     1.0  0.21   1.4   0.000   0.066   30.1    43    0.00   702    1    100.0   30 
28/11/20  3:00p   22.4   22.4   21.5    64   15.3   0.0   ---  0.00   0.0   ---   22.4   22.7   22.7   25.1  1017.3  0.00   0.0   256    11.01    320     1.7  0.36   2.2   0.000   0.086   30.1    42    0.13   699    1    100.0   30 
28/11/20  3:30p   22.7   22.8   22.4    67   16.2   0.0   ---  0.00   0.0   ---   22.7   23.1   23.1   26.2  1015.8  0.00   0.0   304    13.07    374     2.0  0.43   2.4   0.000   0.090   30.2    42    0.00   702    1    100.0   30 
28/11/20  4:00p   23.4   23.4   22.7    70   17.6   0.0   ---  0.00   0.0   ---   23.4   24.3   24.3   27.7  1014.7  0.00   0.0   321    13.80    482     2.0  0.43   2.9   0.000   0.105   30.2    42    0.20   697    1    100.0   30 
28/11/20  4:30p   23.6   23.9   23.4    66   16.9   0.0   ---  0.00   0.0   ---   23.6   24.3   24.3   28.5  1014.9  0.00   0.0   369    15.87    492     2.1  0.45   2.7   0.000   0.110   30.4    42    0.00   703    1    100.0   30 
28/11/20  5:00p   22.8   23.6   22.8    69   16.8   0.0   ---  0.00   0.0   ---   22.8   23.4   23.4   26.4  1014.8  0.00   0.0   248    10.67    457     1.3  0.28   2.6   0.000   0.094   30.4    42    0.00   700    1    100.0   30 
28/11/20  5:30p   21.9   22.8   21.9    72   16.6   0.0   ---  0.00   0.0   ---   21.9   22.3   22.3   23.1  1013.3  0.00   0.0    98     4.21    174     0.2  0.04   0.7   0.000   0.074   30.5    43    0.20   702    1    100.0   30 
28/11/20  6:00p   21.7   21.9   21.7    72   16.5   0.0   ---  0.00   0.0   ---   21.7   22.1   22.1   22.9  1013.7  0.00   0.0    90     3.87    137     0.0  0.00   0.5   0.000   0.071   30.5    43    0.05   700    1    100.0   30 
28/11/20  6:30p   21.6   21.7   21.6    74   16.7   0.0   ---  0.00   0.0   ---   21.6   21.9   21.9   22.5  1013.7  0.00   0.0    65     2.80     98     0.0  0.00   0.0   0.000   0.067   30.5    43    0.00   702    1    100.0   30 
28/11/20  7:00p   21.2   21.6   21.2    76   16.8   0.0   ---  0.00   0.0   ---   21.2   21.6   21.6   21.8  1013.1  0.00   0.0    45     1.94     51     0.0  0.00   0.0   0.000   0.060   30.4    43    0.03   700    1    100.0   30 
28/11/20  7:30p   20.7   21.2   20.7    77   16.5   0.0   ---  0.00   0.0   ---   20.7   21.3   21.3   21.6  1013.3  0.00   0.0    44     1.89     63     0.0  0.00   0.0   0.000   0.049   30.4    43    0.00   702    1    100.0   30 
28/11/20  8:00p   20.2   20.7   20.2    76   15.9   0.0   ---  0.00   0.0   ---   20.2   20.8   20.8   19.7  1014.6  0.00   0.0    13     0.56     26     0.0  0.00   0.0   0.000   0.039   30.3    43    0.03   700    1    100.0   30 
28/11/20  8:30p   19.3   20.2   19.3    80   15.8   0.0   ---  0.00   0.0   ---   19.3   19.9   19.9   18.7  1015.2  0.00   0.0     0     0.00      0     0.0  0.00   0.0   0.000   0.021   30.2    43    0.00   700    1    100.0   30 
28/11/20  9:00p   18.9   19.3   18.8    82   15.7   0.0   ---  0.00   0.0   ---   18.9   19.4   19.4   18.2  1015.1  0.00   0.0     0     0.00      0     0.0  0.00   0.0   0.000   0.012   29.9    43    0.00   702    1    100.0   30 
28/11/20  9:30p   18.5   18.8   18.5    84   15.7   0.0   ---  0.00   0.0   ---   18.5   18.9   18.9   17.7  1016.2  0.00   0.0     0     0.00      0     0.0  0.00   0.0   0.000   0.003   29.8    43    0.00   701    1    100.0   30 
28/11/20 10:00p   17.8   18.5   17.8    84   15.1   0.0   ---  0.00   0.0   ---   17.8   18.2   18.2   16.9  1015.8  0.00   0.0     0     0.00      0     0.0  0.00   0.0   0.010   0.000   29.7    43    0.03   700    1    100.0   30 
28/11/20 10:30p   17.7   17.8   17.7    84   15.0   0.0   ---  0.00   0.0   ---   17.7   18.1   18.1   16.8  1016.1  0.00   0.0     0     0.00      0     0.0  0.00   0.0   0.013   0.000   29.6    43    0.00   702    1    100.0   30 
28/11/20 11:00p   17.7   17.7   17.7    84   14.9   0.0   ---  0.00   0.0   ---   17.7   18.0   18.0   16.7  1015.5  0.00   0.0     0     0.00      0     0.0  0.00   0.0   0.014   0.000   29.5    43    0.03   673    1     98.4   30 
28/11/20 11:30p   17.4   17.7   17.4    85   14.9   0.0   ---  0.00   0.0   ---   17.4   17.7   17.7   16.4  1015.0  0.00   0.0     0     0.00      0     0.0  0.00   0.0   0.019   0.000   29.4    43    0.00   699    1    100.0   30 
29/11/20 12:00a   17.4   17.5   17.4    85   14.9   0.0   ---  0.00   0.0   ---   17.4   17.7   17.7   16.4  1013.7  0.00   0.0     0     0.00      0     0.0  0.00   0.0   0.019   0.000   29.3    43    0.03   697    1    100.0   30 
29/11/20 12:30a   17.3   17.4   17.3    85   14.7   0.0   ---  0.00   0.0   ---   17.3   17.6   17.6   16.3  1014.5  0.00   0.0     0     0.00      0     0.0  0.00   0.0   0.022   0.000   29.2    43    0.00   700    1    100.0   30 
29/11/20  1:00a   16.9   17.3   16.9    86   14.6   0.0   ---  0.00   0.0   ---   16.9   17.2   17.2   15.9  1013.3  0.00   0.0     0     0.00      0     0.0  0.00   0.0   0.029   0.000   29.1    43    0.00   701    1    100.0   30 
29/11/20  1:30a   16.7   16.9   16.7    89   14.9   0.0   ---  0.00   0.0   ---   16.7   17.0   17.0   15.7  1011.5  0.25   0.0     0     0.00      0     0.0  0.00   0.0   0.034   0.000   28.9    43    0.00   701    1    100.0   30 
29/11/20  2:00a   16.2   16.7   16.2    91   14.8   0.0   ---  0.00   0.0   ---   16.2   16.4   16.4   15.2  1010.3  0.25   0.0     0     0.00      0     0.0  0.00   0.0   0.044   0.000   28.8    43    0.00   701    1    100.0   30 
29/11/20  2:30a   16.1   16.2   16.1    92   14.8   0.0   ---  0.00   0.0   ---   16.1   16.3   16.3   15.0  1009.0  0.00   0.0     0     0.00      0     0.0  0.00   0.0   0.047   0.000   28.7    43    0.00   700    1    100.0   30 
29/11/20  3:00a   16.1   16.1   16.1    92   14.8   0.0   ---  0.00   0.0   ---   16.1   16.3   16.3   15.1  1007.3  0.00   0.0     0     0.00      0     0.0  0.00   0.0   0.046   0.000   28.7    43    0.00   700    1    100.0   30 
29/11/20  3:30a   16.1   16.1   16.1    93   15.0   0.0   ---  0.00   0.0   ---   16.1   16.4   16.4   15.1  1006.2  0.00   0.0     0     0.00      0     0.0  0.00   0.0   0.046   0.000   28.6    43    0.00   698    1    100.0   30 
29/11/20  4:00a   16.2   16.2   16.1    93   15.0   0.0   ---  0.00   0.0   ---   16.2   16.4   16.4   15.2  1006.4  0.00   0.0     0     0.00      0     0.0  0.00   0.0   0.045   0.000   28.5    43    0.00   703    1    100.0   30 
29/11/20  4:30a   17.8   17.8   16.2    90   16.2   0.0   ---  0.00   0.0   ---   17.8   18.3   18.3   17.1  1009.0  0.00   0.0     0     0.00      0     0.0  0.00   0.0   0.010   0.000   28.5    44    0.00   702    1    100.0   30 
29/11/20  5:00a   18.9   18.9   17.8    81   15.6   0.0   ---  0.00   0.0   ---   18.9   19.4   19.4   18.2  1009.1  0.00   0.0     0     0.00      0     0.0  0.00   0.0   0.000   0.013   28.4    44    0.00   701    1    100.0   30 
29/11/20  5:30a   18.5   19.0   18.5    79   14.8   0.0   ---  0.00   0.0   ---   18.5   18.9   18.9   17.6  1010.8  0.00   0.0     0     0.00      0     0.0  0.00   0.0   0.000   0.003   28.4    44    0.00   700    1    100.0   30 
29/11/20  6:00a   18.0   18.5   18.0    80   14.5   0.0   ---  0.00   0.0   ---   18.0   18.3   18.3   17.1  1012.5  0.00   0.0     1     0.04      9     0.0  0.00   0.0   0.007   0.000   28.4    44    0.00   700    1    100.0   30 
29/11/20  6:30a   17.1   18.0   17.1    84   14.3   0.0   ---  0.00   0.0   ---   17.1   17.3   17.3   16.1  1014.2  0.51   2.0     9     0.39     21     0.0  0.00   0.0   0.027   0.000   28.3    44    0.00   700    1    100.0   30 
29/11/20  7:00a   15.7   17.1   15.7    89   13.9   0.0   ---  0.00   0.0   ---   15.7   15.9   15.9   14.8  1015.3  0.76   4.1    15     0.65     35     0.0  0.00   0.0   0.054   0.000   28.3    44    0.00   697    1    100.0   30 
29/11/20  7:30a   14.7   15.7   14.7    92   13.4   0.0   ---  0.00   0.0   ---   14.7   14.8   14.8   13.8  1016.5  0.25   2.5    28     1.20     69     0.0  0.00   0.0   0.075   0.000   28.2    44    0.00   700    1    100.0   30 
29/11/20  8:00a   14.4   14.8   14.4    93   13.3   0.0   ---  0.00   0.0   ---   14.4   14.5   14.5   15.2  1017.6  0.25   0.0    67     2.88     98     0.0  0.00   0.0   0.082   0.000   28.1    44    0.03   701    1    100.0   30 
29/11/20  8:30a   14.3   14.4   14.2    93   13.2   0.0   ---  0.00   0.0   ---   14.3   14.4   14.4   16.0  1018.6  0.25   0.0   118     5.07    255     0.2  0.04   0.8   0.083   0.000   27.9    44    0.00   701    1    100.0   30 
29/11/20  9:00a   14.5   14.6   14.3    90   12.9   0.0   ---  0.00   0.0   ---   14.5   14.6   14.6   16.4  1019.6  0.00   0.0   150     6.45    278     0.5  0.11   1.4   0.080   0.000   27.9    44    0.08   674    1     98.5   30 
29/11/20  9:30a   14.4   14.7   14.4    88   12.4   0.0   ---  0.00   0.0   ---   14.4   14.4   14.4   14.8  1020.4  0.00   0.0    80     3.44    142     0.1  0.02   0.5   0.082   0.000   27.8    44    0.00   699    1    100.0   30 
29/11/20 10:00a   14.2   14.4   14.1    87   12.1   0.0   ---  0.00   0.0   ---   14.2   14.2   14.2   14.3  1021.1  0.00   0.0    74     3.18    104     0.1  0.02   0.5   0.086   0.000   27.8    44    0.05   702    1    100.0   30 
29/11/20 10:30a   14.2   14.5   14.2    89   12.4   0.0   ---  0.00   0.0   ---   14.2   14.2   14.2   15.0  1021.5  0.25   0.0   121     5.20    169     0.5  0.11   1.0   0.087   0.000   27.8    43    0.00   701    1    100.0   30 
29/11/20 11:00a   14.1   14.2   13.9    92   12.8   0.0   ---  0.00   0.0   ---   14.1   14.2   14.2   15.5  1022.3  1.27  20.6   167     7.18    320     0.9  0.19   2.2   0.089   0.000   27.8    43    0.08   699    1    100.0   30 
29/11/20 11:30a   15.0   15.0   14.1    91   13.5   0.0   ---  0.00   0.0   ---   15.0   15.1   15.1   19.2  1022.5  0.00   0.0   399    17.16    552     2.7  0.58   3.8   0.069   0.000   27.8    43    0.00   699    1    100.0   30 
29/11/20 12:00p   15.9   15.9   15.0    84   13.2   0.0   ---  0.00   0.0   ---   15.9   16.0   16.0   19.3  1022.5  0.00   0.0   341    14.66    508     2.5  0.54   3.6   0.050   0.000   27.8    43    0.20   702    1    100.0   30 
29/11/20 12:30p   16.3   16.3   15.6    80   12.9   0.0   ---  0.00   0.0   ---   16.3   16.4   16.4   20.7  1022.9  0.00   0.0   437    18.79   1167     3.8  0.81   7.9   0.042   0.000   27.8    43    0.00   700    1    100.0   30 
29/11/20  1:00p   17.2   17.2   16.3    76   12.9   0.0   ---  0.00   0.0   ---   17.2   17.2   17.2   22.0  1023.2  0.00   0.0   497    21.37   1304     4.3  0.92   8.6   0.024   0.000   27.9    43    0.30   702    1    100.0   30 
29/11/20  1:30p   18.9   18.9   17.2    67   12.6   0.0   ---  0.00   0.0   ---   18.9   18.9   18.9   25.0  1023.5  0.25   0.0   704    30.28   1236     6.0  1.29   8.4   0.000   0.012   28.1    43    0.00   701    1    100.0   30 
29/11/20  2:00p   17.6   19.4   17.5    69   11.9   0.0   ---  0.00   0.0   ---   17.6   17.4   17.4   22.4  1024.3  0.00   0.0   515    22.15   1230     4.1  0.88   8.3   0.015   0.000   28.2    42    0.38   677    1     99.0   30 
29/11/20  2:30p   18.3   18.3   17.6    67   12.1   0.0   ---  0.00   0.0   ---   18.3   18.2   18.2   23.8  1024.6  0.00   0.0   607    26.10   1245     4.4  0.94   7.6   0.000   0.000   28.3    42    0.00   701    1    100.0   30 
29/11/20  3:00p   18.6   19.4   18.3    61   10.9   0.0   ---  0.00   0.0   ---   18.6   18.2   18.2   24.2  1024.6  0.00   0.0   820    35.26   1294     5.3  1.14   7.3   0.000   0.005   28.5    42    0.41   702    1    100.0   30 
29/11/20  3:30p   18.2   19.2   18.2    63   11.1   0.0   ---  0.00   0.0   ---   18.2   17.9   17.9   22.4  1025.1  0.00   0.0   463    19.91   1253     3.3  0.71   6.4   0.002   0.000   28.6    41    0.00   703    1    100.0   30 
29/11/20  4:00p   17.7   18.2   17.7    64   10.8   0.0   ---  0.00   0.0   ---   17.7   17.3   17.3   19.7  1025.5  0.00   0.0   252    10.84    309     1.5  0.32   1.8   0.014   0.000   28.6    40    0.23   701    1    100.0   30 
29/11/20  4:30p   17.3   17.7   17.3    64   10.5   0.0   ---  0.00   0.0   ---   17.3   16.9   16.9   19.4  1025.8  0.00   0.0   252    10.84    309     1.3  0.28   1.5   0.021   0.000   28.6    40    0.00   676    1     98.8   30 
29/11/20  5:00p   17.5   18.1   17.2    61    9.9   0.0   ---  0.00   0.0   ---   17.5   17.0   17.0   20.2  1026.2  0.00   0.0   291    12.51    647     1.7  0.36   3.2   0.017   0.000   28.6    40    0.18   701    1    100.0   30 
29/11/20  5:30p   17.7   18.1   17.5    63   10.6   0.0   ---  0.00   0.0   ---   17.7   17.3   17.3   21.7  1025.7  0.00   0.0   355    15.27    763     1.5  0.32   2.3   0.013   0.000   28.6    39    0.00   701    1    100.0   30 
29/11/20  6:00p   17.4   17.8   17.3    60    9.6   0.0   ---  0.00   0.0   ---   17.4   16.9   16.9   19.3  1026.2  0.00   0.0   191     8.21    504     1.0  0.21   1.6   0.019   0.000   28.6    39    0.18   699    1    100.0   30 
29/11/20  6:30p   17.3   17.4   17.1    61    9.7   0.0   ---  0.00   0.0   ---   17.3   16.8   16.8   19.5  1026.6  0.00   0.0   190     8.17    383     0.6  0.13   0.9   0.021   0.000   28.6    38    0.00   673    1     98.4   30 
29/11/20  7:00p   16.3   17.3   16.3    65    9.7   0.0   ---  0.00   0.0   ---   16.3   15.9   15.9   17.2  1027.3  0.00   0.0   104     4.47    281     0.0  0.00   0.0   0.042   0.000   28.5    38    0.10   703    1    100.0   30 
29/11/20  7:30p   16.1   16.3   16.1    67   10.0   0.0   ---  0.00   0.0   ---   16.1   15.7   15.7   16.7  1027.2  0.00   0.0    88     3.78    127     0.0  0.00   0.0   0.046   0.000   28.4    38    0.00   701    1    100.0   30 
29/11/20  8:00p   15.4   16.1   15.4    70   10.0   0.0   ---  0.00   0.0   ---   15.4   15.1   15.1   13.8  1027.6  0.00   0.0    30     1.29     40     0.0  0.00   0.0   0.060   0.000   28.3    38    0.03   699    1    100.0   30 
29/11/20  8:30p   14.9   15.4   14.9    71    9.7   0.0   ---  0.00   0.0   ---   14.9   14.6   14.6   13.0  1028.0  0.00   0.0     7     0.30     16     0.0  0.00   0.0   0.071   0.000   28.2    38    0.00   700    1    100.0   30 
29/11/20  9:00p   14.7   14.9   14.6    73    9.9   0.0   ---  0.00   0.0   ---   14.7   14.3   14.3   12.7  1028.3  0.00   0.0     0     0.00      0     0.0  0.00   0.0   0.076   0.000   28.1    38    0.00   702    1    100.0   30 
29/11/20  9:30p   14.6   14.7   14.6    75   10.2   0.0   ---  0.00   0.0   ---   14.6   14.3   14.3   12.7  1028.6  0.00   0.0     0     0.00      0     0.0  0.00   0.0   0.078   0.000   27.9    38    0.00   699    1    100.0   30 
29/11/20 10:00p   14.3   14.6   14.3    77   10.4   0.0   ---  0.00   0.0   ---   14.3   14.1   14.1   12.5  1029.0  0.00   0.0     0     0.00      0     0.0  0.00   0.0   0.083   0.000   27.8    38    0.03   702    1    100.0   30 
29/11/20 10:30p   13.3   14.3   13.3    80    9.9   0.0   ---  0.00   0.0   ---   13.3   13.1   13.1   11.4  1029.1  0.00   0.0     0     0.00      0     0.0  0.00   0.0   0.105   0.000   27.7    38    0.00   701    1    100.0   30 
29/11/20 11:00p   12.1   13.3   12.1    84    9.4   0.0   ---  0.00   0.0   ---   12.1   12.0   12.0   10.3  1029.2  0.00   0.0     0     0.00      0     0.0  0.00   0.0   0.131   0.000   27.6    39    0.03   664    1     97.1   30 
29/11/20 11:30p   11.3   12.1   11.3    88    9.4   0.0   ---  0.00   0.0   ---   11.3   11.3   11.3    9.7  1029.2  0.00   0.0     0     0.00      0     0.0  0.00   0.0   0.147   0.000   27.3    39    0.00   700    1    100.0   30 
30/11/20 12:00a   10.8   11.3   10.8    90    9.2   0.0   ---  0.00   0.0   ---   10.8   10.9   10.9    9.2  1029.9  0.00   0.0     0     0.00      0     0.0  0.00   0.0   0.157   0.000   27.2    39    0.00   701    1    100.0   30 
30/11/20 12:30a   10.2   10.8   10.2    91    8.8   0.0   ---  0.00   0.0   ---   10.2   10.3   10.3    8.6  1030.0  0.00   0.0     0     0.00      0     0.0  0.00   0.0   0.170   0.000   27.0    39    0.00   698    1    100.0   30 
30/11/20  1:00a   10.0   10.2    9.8    92    8.8   0.0   ---  0.00   0.0   ---   10.0   10.2   10.2    8.5  1029.4  0.00   0.0     0     0.00      0     0.0  0.00   0.0   0.174   0.000   26.8    39    0.00   676    1     98.8   30 
30/11/20  1:30a    9.3   10.0    9.3    92    8.0   0.0   ---  0.00   0.0   ---    9.3    9.5    9.5    7.8  1029.2  0.00   0.0     0     0.00      0     0.0  0.00   0.0   0.189   0.000   26.6    39    0.00   701    1    100.0   30 
30/11/20  2:00a    8.8    9.3    8.8    92    7.6   0.0   ---  0.00   0.0   ---    8.8    9.0    9.0    7.2  1028.7  0.00   0.0     0     0.00      0     0.0  0.00   0.0   0.198   0.000   26.5    39    0.00   703    1    100.0   30 
30/11/20  2:30a    8.4    8.8    8.4    93    7.4   0.0   ---  0.00   0.0   ---    8.4    8.6    8.6    6.8  1028.8  0.00   0.0     0     0.00      0     0.0  0.00   0.0   0.206   0.000   26.3    39    0.00   700    1    100.0   30 
30/11/20  3:00a    8.3    8.5    8.3    94    7.4   0.0   ---  0.00   0.0   ---    8.3    8.4    8.4    6.7  1028.8  0.00   0.0     0     0.00      0     0.0  0.00   0.0   0.209   0.000   26.1    39    0.00   671    1     98.1   30 
30/11/20  3:30a    8.9    8.9    8.3    95    8.2   0.0   ---  0.00   0.0   ---    8.9    9.2    9.2    7.4  1028.8  0.00   0.0     0     0.00      0     0.0  0.00   0.0   0.196   0.000   26.0    39    0.00   702    1    100.0   30 
30/11/20  4:00a    9.4    9.4    8.9    95    8.7   0.0   ---  0.00   0.0   ---    9.4    9.7    9.7    8.0  1028.6  0.00   0.0     0     0.00      0     0.0  0.00   0.0   0.185   0.000   25.9    39    0.00   701    1    100.0   30 
30/11/20  4:30a    9.9    9.9    9.4    95    9.2   0.0   ---  0.00   0.0   ---    9.9   10.2   10.2    8.6  1027.7  0.00   0.0     0     0.00      0     0.0  0.00   0.0   0.175   0.000   25.9    39    0.00   702    1    100.0   30 
30/11/20  5:00a   10.5   10.6    9.9    95    9.7   0.0   ---  0.00   0.0   ---   10.5   10.7   10.7    9.1  1027.9  0.00   0.0     0     0.00      0     0.0  0.00   0.0   0.163   0.000   25.9    39    0.00   665    1     97.2   30 
30/11/20  5:30a   10.4   10.6   10.4    95    9.7   0.0   ---  0.00   0.0   ---   10.4   10.7   10.7    9.0  1027.7  0.00   0.0     0     0.00      0     0.0  0.00   0.0   0.164   0.000   25.9    39    0.00   701    1    100.0   30 
30/11/20  6:00a    9.8   10.4    9.8    95    9.1   0.0   ---  0.00   0.0   ---    9.8   10.1   10.1    8.4  1027.8  0.00   0.0     3     0.13     11     0.0  0.00   0.0   0.177   0.000   25.8    39    0.00   702    1    100.0   30 
30/11/20  6:30a   10.3   10.3    9.6    96    9.7   0.0   ---  0.00   0.0   ---   10.3   10.6   10.6    9.3  1028.0  0.00   0.0    32     1.38     65     0.0  0.00   0.0   0.167   0.000   25.7    39    0.00   701    1    100.0   30 
30/11/20  7:00a   11.7   11.7   10.3    96   11.1   0.0   ---  0.00   0.0   ---   11.7   11.9   11.9   11.6  1027.9  0.00   0.0   106     4.56    158     0.0  0.00   0.0   0.138   0.000   25.6    39    0.03   703    1    100.0   30 
30/11/20  7:30a   13.1   13.2   11.7    92   11.8   0.0   ---  0.00   0.0   ---   13.1   13.2   13.2   17.1  1028.0  0.00   0.0   216     9.29    279     0.0  0.00   0.5   0.109   0.000   25.6    39    0.00   700    1    100.0   30 
30/11/20  8:00a   15.3   15.3   13.1    76   11.1   0.0   ---  0.00   0.0   ---   15.3   15.1   15.1   20.9  1028.2  0.00   0.0   335    14.41    380     0.7  0.15   0.9   0.063   0.000   25.7    39    0.13   702    1    100.0   30 
30/11/20  8:30a   16.8   16.8   15.3    67   10.7   0.0   ---  0.00   0.0   ---   16.8   16.5   16.5   22.8  1028.0  0.00   0.0   416    17.89    490     1.2  0.26   1.5   0.031   0.000   25.9    39    0.00   701    1    100.0   30 
30/11/20  9:00a   18.0   18.0   16.8    63   10.8   0.0   ---  0.00   0.0   ---   18.0   17.7   17.7   24.7  1028.5  0.00   0.0   539    23.18    599     1.9  0.41   2.3   0.007   0.000   26.4    39    0.25   702    1    100.0   30 
30/11/20  9:30a   17.7   18.1   17.6    63   10.5   0.0   ---  0.00   0.0   ---   17.7   17.3   17.3   24.1  1028.2  0.00   0.0   625    26.88    712     2.7  0.58   3.2   0.014   0.000   26.0    39    0.00   700    1    100.0   30 
30/11/20 10:00a   18.5   18.5   17.7    61   10.8   0.0   ---  0.00   0.0   ---   18.5   18.1   18.1   24.8  1027.8  0.00   0.0   707    30.40    814     3.6  0.77   4.2   0.000   0.003   26.1    39    0.38   699    1    100.0   30 
30/11/20 10:30a   19.4   19.4   18.5    59   11.2   0.0   ---  0.00   0.0   ---   19.4   19.1   19.1   25.7  1027.5  0.00   0.0   800    34.40    879     4.5  0.96   5.3   0.000   0.022   26.5    40    0.00   699    1    100.0   30 
30/11/20 11:00a   20.4   20.5   19.4    55   11.0   0.0   ---  0.00   0.0   ---   20.4   19.9   19.9   26.4  1027.4  0.00   0.0   879    37.80    970     5.5  1.18   6.2   0.000   0.043   26.9    40    0.48   702    1    100.0   30 
30/11/20 11:30a   21.2   21.2   20.4    54   11.5   0.0   ---  0.00   0.0   ---   21.2   20.4   20.4   27.0  1026.8  0.00   0.0   971    41.76   1069     6.5  1.39   7.3   0.000   0.059   27.4    39    0.00   701    1    100.0   30 
30/11/20 12:00p   22.2   22.2   21.2    52   11.9   0.0   ---  0.00   0.0   ---   22.2   21.8   21.8   28.1  1026.2  0.00   0.0   988    42.49   1049     7.1  1.52   7.8   0.000   0.081   26.3    37    0.56   702    1    100.0   30 
30/11/20 12:30p   23.3   23.3   22.2    49   12.0   0.0   ---  0.00   0.0   ---   23.3   23.1   23.1   29.1  1025.7  0.00   0.0  1025    44.08   1113     7.8  1.67   8.5   0.000   0.103   26.3    38    0.00   700    1    100.0   30 
30/11/20  1:00p   23.6   23.9   23.3    49   12.3   0.0   ---  0.00   0.0   ---   23.6   23.5   23.5   29.2  1025.1  0.00   0.0  1007    43.31   1099     7.8  1.67   9.0   0.000   0.110   27.7    38    0.61   700    1    100.0   30 
30/11/20  1:30p   24.8   24.8   23.6    47   12.7   0.0   ---  0.00   0.0   ---   24.8   24.6   24.6   30.5  1024.5  0.00   0.0  1046    44.98   1093     8.4  1.80   8.7   0.000   0.134   26.5    37    0.00   701    1    100.0   30 
30/11/20  2:00p   26.0   26.0   24.8    46   13.5   0.0   ---  0.00   0.0   ---   26.0   25.9   25.9   31.7  1024.1  0.00   0.0  1025    44.08   1035     8.3  1.78   8.4   0.000   0.160   25.4    38    0.63   700    1    100.0   30 
30/11/20  2:30p   26.3   26.4   26.1    46   13.7   0.0   ---  0.00   0.0   ---   26.3   26.2   26.2   32.1  1023.3  0.00   0.0   995    42.79   1016     7.8  1.67   8.1   0.000   0.166   25.0    40    0.00   697    1    100.0   30 
30/11/20  3:00p   27.1   27.2   26.3    45   14.2   0.0   ---  0.00   0.0   ---   27.1   26.9   26.9   32.8  1022.3  0.00   0.0   951    40.90    974     7.2  1.54   7.6   0.000   0.183   24.9    42    0.61   675    1     98.7   30 
30/11/20  3:30p   27.5   27.8   27.1    45   14.5   0.0   ---  0.00   0.0   ---   27.5   27.4   27.4   33.4  1021.3  0.00   0.0   894    38.45    928     6.3  1.35   6.8   0.000   0.191   26.9    46    0.00   700    1    100.0   30 
30/11/20  4:00p   28.2   28.2   27.5    46   15.5   0.0   ---  0.00   0.0   ---   28.2   28.5   28.5   34.5  1020.8  0.00   0.0   815    35.05    860     5.2  1.11   5.8   0.000   0.206   28.4    46    0.56   702    1    100.0   30 
30/11/20  4:30p   28.6   28.6   28.2    44   15.1   0.0   ---  0.00   0.0   ---   28.6   28.9   28.9   34.8  1020.2  0.00   0.0   729    31.35    788     4.1  0.88   4.6   0.000   0.213   28.6    42    0.00   701    1    100.0   30 
30/11/20  5:00p   29.2   29.8   28.6    43   15.3   0.0   ---  0.00   0.0   ---   29.2   29.6   29.6   35.6  1019.9  0.00   0.0   648    27.87    698     3.3  0.71   3.8   0.000   0.226   26.6    39    0.46   703    1    100.0   30 
30/11/20  5:30p   29.8   29.8   29.2    43   15.9   0.0   ---  0.00   0.0   ---   29.8   30.2   30.2   36.1  1019.5  0.00   0.0   505    21.72    599     2.3  0.49   2.8   0.000   0.240   25.4    38    0.00   702    1    100.0   30 
30/11/20  6:00p   30.1   30.3   29.8    35   12.9   0.0   ---  0.00   0.0   ---   30.1   29.7   29.7   34.8  1018.9  0.00   0.0   387    16.64    566     1.5  0.32   1.8   0.000   0.244   25.3    41    0.30   698    1    100.0   30 
30/11/20  6:30p   29.9   30.1   29.8    34   12.3   0.0   ---  0.00   0.0   ---   29.9   29.4   29.4   33.8  1019.1  0.00   0.0   290    12.47    434     1.0  0.21   1.4   0.000   0.241   24.8    39    0.00   702    1    100.0   30 
30/11/20  7:00p   29.4   30.0   29.4    37   13.2   0.0   ---  0.00   0.0   ---   29.4   29.2   29.2   30.8  1019.0  0.00   0.0   111     4.77    213     0.3  0.06   0.8   0.000   0.231   24.5    38    0.15   701    1    100.0   30 
30/11/20  7:30p   28.7   29.5   28.7    42   14.5   0.0   ---  0.00   0.0   ---   28.7   28.9   28.9   30.0  1018.9  0.00   0.0    80     3.44    105     0.0  0.00   0.0   0.000   0.216   24.2    37    0.00   701    1    100.0   30 
30/11/20  8:00p   26.9   28.7   26.9    48   15.0   0.0   ---  0.00   0.0   ---   26.9   26.9   26.9   26.0  1019.4  0.00   0.0    36     1.55     58     0.0  0.00   0.0   0.000   0.179   24.0    37    0.05   700    1    100.0   30 
30/11/20  8:30p   25.1   26.9   25.1    56   15.7   0.0   ---  0.00   0.0   ---   25.1   25.3   25.3   24.0  1019.7  0.00   0.0     5     0.22     21     0.0  0.00   0.0   0.000   0.140   23.8    37    0.00   701    1    100.0   30 
30/11/20  9:00p   23.3   25.1   23.3    63   15.8   0.0   ---  0.00   0.0   ---   23.3   23.8   23.8   22.5  1020.0  0.00   0.0     0     0.00      0     0.0  0.00   0.0   0.000   0.103   23.6    37    0.03   700    1    100.0   30 
30/11/20  9:30p   23.1   23.3   23.1    68   16.9   0.0   ---  0.00   0.0   ---   23.1   23.8   23.8   22.5  1019.9  0.00   0.0     0     0.00      0     0.0  0.00   0.0   0.000   0.100   23.4    38    0.00   699    1    100.0   30 
30/11/20 10:00p   22.4   23.2   22.4    71   16.9   0.0   ---  0.00   0.0   ---   22.4   22.9   22.9   21.7  1020.1  0.00   0.0     0     0.00      0     0.0  0.00   0.0   0.000   0.086   23.3    39    0.03   702    1    100.0   30 
30/11/20 10:30p   21.7   22.4   21.7    74   16.8   0.0   ---  0.00   0.0   ---   21.7   22.1   22.1   20.8  1020.2  0.00   0.0     0     0.00      0     0.0  0.00   0.0   0.000   0.069   23.2    40    0.00   702    1    100.0   30 
30/11/20 11:00p   20.9   21.7   20.9    77   16.8   0.0   ---  0.00   0.0   ---   20.9   21.4   21.4   20.2  1019.8  0.00   0.0     0     0.00      0     0.0  0.00   0.0   0.000   0.054   23.2    40    0.03   702    1    100.0   30 
30/11/20 11:30p   20.2   20.9   20.2    79   16.5   0.0   ---  0.00   0.0   ---   20.2   20.9   20.9   19.7  1020.0  0.00   0.0     0     0.00      0     0.0  0.00   0.0   0.000   0.039   23.4    42    0.00   701    1    100.0   30 
 1/12/20 12:00a   19.6   20.2   19.6    82   16.4   0.0   ---  0.00   0.0   ---   19.6   20.2   20.2   18.9  1019.3  0.00   0.0     0     0.00      0     0.0  0.00   0.0   0.000   0.025   23.5    43    0.03   700    1    100.0   30 
 1/12/20 12:30a   19.2   19.6   19.2    83   16.2   0.0   ---  0.00   0.0   ---   19.2   19.8   19.8   18.5  1018.6  0.00   0.0     0     0.00      0     0.0  0.00   0.0   0.000   0.017   23.5    44    0.00   700    1    100.0   30 
 1/12/20  1:00a   18.9   19.2   18.9    84   16.1   0.0   ---  0.00   0.0   ---   18.9   19.4   19.4   18.2  1018.5  0.00   0.0     0     0.00      0     0.0  0.00   0.0   0.000   0.012   23.4    44    0.03   698    1    100.0   30 
 1/12/20  1:30a   18.4   18.9   18.3    85   15.8   0.0   ---  0.00   0.0   ---   18.4   18.8   18.8   17.5  1017.7  0.00   0.0     0     0.00      0     0.0  0.00   0.0   0.000   0.001   23.3    44    0.00   702    1    100.0   30 
 1/12/20  2:00a   18.0   18.4   18.0    85   15.4   0.0   ---  0.00   0.0   ---   18.0   18.4   18.4   17.1  1018.0  0.00   0.0     0     0.00      0     0.0  0.00   0.0   0.007   0.000   23.2    45    0.03   699    1    100.0   30 
 1/12/20  2:30a   17.6   18.0   17.6    86   15.2   0.0   ---  0.00   0.0   ---   17.6   17.9   17.9   16.6  1017.8  0.00   0.0     0     0.00      0     0.0  0.00   0.0   0.015   0.000   23.1    45    0.00   701    1    100.0   30 
 1/12/20  3:00a   17.1   17.6   17.1    88   15.1   0.0   ---  0.00   0.0   ---   17.1   17.4   17.4   16.1  1017.3  0.00   0.0     0     0.00      0     0.0  0.00   0.0   0.025   0.000   23.1    46    0.00   700    1    100.0   30 
 1/12/20  3:30a   16.7   17.2   16.7    89   14.8   0.0   ---  0.00   0.0   ---   16.7   16.9   16.9   15.6  1016.1  0.00   0.0     0     0.00      0     0.0  0.00   0.0   0.035   0.000   22.8    45    0.00   702    1    100.0   30 
 1/12/20  4:00a   16.4   16.7   16.4    89   14.6   0.0   ---  0.00   0.0   ---   16.4   16.7   16.7   15.3  1016.0  0.00   0.0     0     0.00      0     0.0  0.00   0.0   0.039   0.000   22.8    46    0.00   701    1    100.0   30 
 1/12/20  4:30a   20.2   20.2   16.4    67   13.9   0.0   ---  0.00   0.0   ---   20.2   20.4   20.4   19.0  1015.9  0.00   0.0     0     0.00      0     0.0  0.00   0.0   0.000   0.039   22.8    46    0.00   701    1    100.0   30 
 1/12/20  5:00a   21.6   21.7   20.3    61   13.8   0.0   ---  0.00   0.0   ---   21.6   21.4   21.4   19.9  1016.1  0.00   0.0     0     0.00      0     0.0  0.00   0.0   0.000   0.068   22.7    46    0.03   700    1    100.0   30 
 1/12/20  5:30a   21.4   21.7   21.4    60   13.3   0.0   ---  0.00   0.0   ---   21.4   21.0   21.0   19.6  1016.0  0.00   0.0     0     0.00      0     0.0  0.00   0.0   0.000   0.064   22.8    48    0.00   701    1    100.0   30 
 1/12/20  6:00a   21.1   21.4   21.1    62   13.5   0.0   ---  0.00   0.0   ---   21.1   20.7   20.7   19.3  1016.0  0.00   0.0     1     0.04      5     0.0  0.00   0.0   0.000   0.057   22.8    48    0.00   670    1     98.0   30 
 1/12/20  6:30a   19.9   21.1   19.8    66   13.3   0.0   ---  0.00   0.0   ---   19.9   20.0   20.0   18.8  1015.6  0.00   0.0    24     1.03     40     0.0  0.00   0.0   0.000   0.032   22.7    47    0.00   701    1    100.0   30 
 1/12/20  7:00a   22.7   22.7   19.9    56   13.4   0.0   ---  0.00   0.0   ---   22.7   22.7   22.7   22.7  1015.4  0.00   0.0   114     4.90    211     0.0  0.00   0.0   0.000   0.090   22.7    48    0.05   700    1    100.0   30 
 1/12/20  7:30a   24.2   24.2   22.7    52   13.7   0.0   ---  0.00   0.0   ---   24.2   24.3   24.3   28.2  1015.5  0.00   0.0   212     9.12    308     0.2  0.04   0.6   0.000   0.123   22.8    49    0.00   698    1    100.0   30 
 1/12/20  8:00a   25.2   25.2   24.2    49   13.7   0.0   ---  0.00   0.0   ---   25.2   25.1   25.1   28.7  1015.3  0.00   0.0   234    10.06    482     0.6  0.13   0.9   0.000   0.142   22.7    48    0.15   700    1    100.0   30 
 1/12/20  8:30a   24.6   25.2   24.6    51   13.7   0.0   ---  0.00   0.0   ---   24.6   24.6   24.6   25.4  1015.6  0.00   0.0    81     3.48    141     0.0  0.00   0.5   0.000   0.130   23.8    48    0.00   663    1     96.9   30 
 1/12/20  9:00a   24.2   24.6   24.2    53   14.0   0.0   ---  0.00   0.0   ---   24.2   24.3   24.3   24.5  1015.6  0.00   0.0    60     2.58     81     0.0  0.00   0.0   0.000   0.122   25.2    48    0.05   700    1    100.0   30 
 1/12/20  9:30a   24.2   24.2   24.1    53   14.0   0.0   ---  0.00   0.0   ---   24.2   24.3   24.3   24.9  1015.7  0.00   0.0    89     3.83    130     0.4  0.09   0.8   0.000   0.122   26.2    48    0.00   699    1    100.0   30 
 1/12/20 10:00a   24.8   24.8   24.2    55   15.1   0.0   ---  0.00   0.0   ---   24.8   24.9   24.9   26.3  1016.1  0.00   0.0   145     6.24    178     1.0  0.21   1.3   0.000   0.134   26.1    58    0.08   701    1    100.0   30 
 1/12/20 10:30a   25.9   25.9   24.8    50   14.7   0.0   ---  0.00   0.0   ---   25.9   25.9   25.9   27.6  1015.4  0.00   0.0   173     7.44    251     1.3  0.28   1.8   0.000   0.157   26.4    56    0.00   680    1     99.4   30 
 1/12/20 11:00a   26.8   26.8   25.9    49   15.2   0.0   ---  0.00   0.0   ---   26.8   26.8   26.8   28.4  1016.4  0.00   0.0   181     7.78    258     1.4  0.30   2.0   0.000   0.177   25.8    50    0.13   697    1    100.0   30 
 1/12/20 11:30a   26.4   27.1   26.4    49   14.8   0.0   ---  0.00   0.0   ---   26.4   26.4   26.4   27.3  1017.9  0.00   0.0   140     6.02    165     1.2  0.26   1.3   0.000   0.168   24.5    49    0.00   703    1    100.0   30 
 1/12/20 12:00p   24.7   26.4   24.7    49   13.3   0.0   ---  0.00   0.0   ---   24.7   24.6   24.6   25.5  1019.5  0.00   0.0   145     6.24    206     1.3  0.28   1.8   0.000   0.133   23.7    47    0.10   699    1    100.0   30 
 1/12/20 12:30p   20.8   24.7   20.7    72   15.5   0.0   ---  0.00   0.0   ---   20.8   21.1   21.1   21.1  1018.4  0.76   2.5    76     3.27     88     0.7  0.15   0.8   0.000   0.051   23.3    49    0.00   702    1    100.0   30